<?xml version="1.0" encoding="UTF-8" standalone="no" ?><gpx xmlns="http://www.topografix.com/GPX/1/1" xmlns:gpxx="http://www.garmin.com/xmlschemas/GpxExtensions/v3" xmlns:wptx1="http://www.garmin.com/xmlschemas/WaypointExtension/v1" xmlns:gpxtpx="http://www.garmin.com/xmlschemas/TrackPointExtension/v1" creator="GuideVTT.com" version="1.1" xmlns:xsi="http://www.w3.org/2001/XMLSchema-instance" xsi:schemaLocation="http://www.topografix.com/GPX/1/1 http://www.topografix.com/GPX/1/1/gpx.xsd http://www.garmin.com/xmlschemas/GpxExtensions/v3 http://www8.garmin.com/xmlschemas/GpxExtensionsv3.xsd http://www.garmin.com/xmlschemas/WaypointExtension/v1 http://www8.garmin.com/xmlschemas/WaypointExtensionv1.xsd http://www.garmin.com/xmlschemas/TrackPointExtension/v1 http://www.garmin.com/xmlschemas/TrackPointExtensionv1.xsd">
<metadata><link href="http://www.garmin.com"><text>Garmin International</text></link><time>2013-06-22T15:13:50Z</time></metadata>
<trk><name>arbognes.gpx</name><extensions><gpxx:TrackExtension><gpxx:DisplayColor>Cyan</gpxx:DisplayColor></gpxx:TrackExtension></extensions><trkseg>
<trkpt lat="46.81491137" lon="7.04251528"><ele></ele><time>2014-6-19T7:39:49Z</time></trkpt>
<trkpt lat="46.81491137" lon="7.04249382"><ele></ele><time>2014-6-19T7:39:52Z</time></trkpt>
<trkpt lat="46.81506157" lon="7.04227924"><ele></ele><time>2014-6-19T7:39:55Z</time></trkpt>
<trkpt lat="46.81510448" lon="7.04204321"><ele></ele><time>2014-6-19T7:39:58Z</time></trkpt>
<trkpt lat="46.81512594" lon="7.04152822"><ele></ele><time>2014-6-19T7:40:1Z</time></trkpt>
<trkpt lat="46.81519032" lon="7.04133511"><ele></ele><time>2014-6-19T7:40:4Z</time></trkpt>
<trkpt lat="46.81534052" lon="7.04054117"><ele></ele><time>2014-6-19T7:40:7Z</time></trkpt>
<trkpt lat="46.81538343" lon="7.04021931"><ele></ele><time>2014-6-19T7:40:10Z</time></trkpt>
<trkpt lat="46.81529760" lon="7.03972578"><ele></ele><time>2014-6-19T7:40:13Z</time></trkpt>
<trkpt lat="46.81519032" lon="7.03899622"><ele></ele><time>2014-6-19T7:40:16Z</time></trkpt>
<trkpt lat="46.81519032" lon="7.03886747"><ele></ele><time>2014-6-19T7:40:19Z</time></trkpt>
<trkpt lat="46.81527615" lon="7.03800917"><ele></ele><time>2014-6-19T7:40:22Z</time></trkpt>
<trkpt lat="46.81538343" lon="7.03678608"><ele></ele><time>2014-6-19T7:40:25Z</time></trkpt>
<trkpt lat="46.81544781" lon="7.03575611"><ele></ele><time>2014-6-19T7:40:28Z</time></trkpt>
<trkpt lat="46.81557655" lon="7.03509092"><ele></ele><time>2014-6-19T7:40:31Z</time></trkpt>
<trkpt lat="46.81585550" lon="7.03436136"><ele></ele><time>2014-6-19T7:40:34Z</time></trkpt>
<trkpt lat="46.81624174" lon="7.03376055"><ele></ele><time>2014-6-19T7:40:37Z</time></trkpt>
<trkpt lat="46.81675673" lon="7.03305244"><ele></ele><time>2014-6-19T7:40:40Z</time></trkpt>
<trkpt lat="46.81677818" lon="7.03298807"><ele></ele><time>2014-6-19T7:40:43Z</time></trkpt>
<trkpt lat="46.81701422" lon="7.03253746"><ele></ele><time>2014-6-19T7:40:46Z</time></trkpt>
<trkpt lat="46.81718588" lon="7.03195810"><ele></ele><time>2014-6-19T7:40:49Z</time></trkpt>
<trkpt lat="46.81716442" lon="7.03152895"><ele></ele><time>2014-6-19T7:40:52Z</time></trkpt>
<trkpt lat="46.81720734" lon="7.03086376"><ele></ele><time>2014-6-19T7:40:55Z</time></trkpt>
<trkpt lat="46.81725025" lon="7.03049898"><ele></ele><time>2014-6-19T7:40:58Z</time></trkpt>
<trkpt lat="46.81725025" lon="7.03017712"><ele></ele><time>2014-6-19T7:41:1Z</time></trkpt>
<trkpt lat="46.81727171" lon="7.02974796"><ele></ele><time>2014-6-19T7:41:4Z</time></trkpt>
<trkpt lat="46.81744337" lon="7.02867508"><ele></ele><time>2014-6-19T7:41:7Z</time></trkpt>
<trkpt lat="46.81746483" lon="7.02837467"><ele></ele><time>2014-6-19T7:41:10Z</time></trkpt>
<trkpt lat="46.81740046" lon="7.02743053"><ele></ele><time>2014-6-19T7:41:13Z</time></trkpt>
<trkpt lat="46.81707859" lon="7.02614307"><ele></ele><time>2014-6-19T7:41:16Z</time></trkpt>
<trkpt lat="46.81697130" lon="7.02526331"><ele></ele><time>2014-6-19T7:41:19Z</time></trkpt>
<trkpt lat="46.81692839" lon="7.02474833"><ele></ele><time>2014-6-19T7:41:22Z</time></trkpt>
<trkpt lat="46.81692839" lon="7.02440500"><ele></ele><time>2014-6-19T7:41:25Z</time></trkpt>
<trkpt lat="46.81682110" lon="7.02397585"><ele></ele><time>2014-6-19T7:41:28Z</time></trkpt>
<trkpt lat="46.81669235" lon="7.02373981"><ele></ele><time>2014-6-19T7:41:31Z</time></trkpt>
<trkpt lat="46.81664944" lon="7.02408314"><ele></ele><time>2014-6-19T7:41:34Z</time></trkpt>
<trkpt lat="46.81647778" lon="7.02416897"><ele></ele><time>2014-6-19T7:41:37Z</time></trkpt>
<trkpt lat="46.81600571" lon="7.02431917"><ele></ele><time>2014-6-19T7:41:40Z</time></trkpt>
<trkpt lat="46.81570530" lon="7.02455521"><ele></ele><time>2014-6-19T7:41:43Z</time></trkpt>
<trkpt lat="46.81549072" lon="7.02483416"><ele></ele><time>2014-6-19T7:41:46Z</time></trkpt>
<trkpt lat="46.81523323" lon="7.02526331"><ele></ele><time>2014-6-19T7:41:49Z</time></trkpt>
<trkpt lat="46.81512594" lon="7.02554226"><ele></ele><time>2014-6-19T7:41:52Z</time></trkpt>
<trkpt lat="46.81506157" lon="7.02588558"><ele></ele><time>2014-6-19T7:41:55Z</time></trkpt>
<trkpt lat="46.81508303" lon="7.02622890"><ele></ele><time>2014-6-19T7:41:58Z</time></trkpt>
<trkpt lat="46.81514740" lon="7.02685118"><ele></ele><time>2014-6-19T7:42:1Z</time></trkpt>
<trkpt lat="46.81516886" lon="7.02706575"><ele></ele><time>2014-6-19T7:42:4Z</time></trkpt>
<trkpt lat="46.81497574" lon="7.02706575"><ele></ele><time>2014-6-19T7:42:7Z</time></trkpt>
<trkpt lat="46.81484699" lon="7.02708721"><ele></ele><time>2014-6-19T7:42:10Z</time></trkpt>
<trkpt lat="46.81469679" lon="7.02725887"><ele></ele><time>2014-6-19T7:42:13Z</time></trkpt>
<trkpt lat="46.81456804" lon="7.02755928"><ele></ele><time>2014-6-19T7:42:16Z</time></trkpt>
<trkpt lat="46.81448221" lon="7.02773094"><ele></ele><time>2014-6-19T7:42:19Z</time></trkpt>
<trkpt lat="46.81437492" lon="7.02788115"><ele></ele><time>2014-6-19T7:42:22Z</time></trkpt>
<trkpt lat="46.81435347" lon="7.02790260"><ele></ele><time>2014-6-19T7:42:25Z</time></trkpt>
<trkpt lat="46.81428909" lon="7.02800989"><ele></ele><time>2014-6-19T7:42:28Z</time></trkpt>
<trkpt lat="46.81424618" lon="7.02792406"><ele></ele><time>2014-6-19T7:42:31Z</time></trkpt>
<trkpt lat="46.81426764" lon="7.02783823"><ele></ele><time>2014-6-19T7:42:34Z</time></trkpt>
<trkpt lat="46.81428909" lon="7.02779531"><ele></ele><time>2014-6-19T7:42:37Z</time></trkpt>
<trkpt lat="46.81439638" lon="7.02745199"><ele></ele><time>2014-6-19T7:42:40Z</time></trkpt>
<trkpt lat="46.81439638" lon="7.02723742"><ele></ele><time>2014-6-19T7:42:43Z</time></trkpt>
<trkpt lat="46.81450367" lon="7.02704430"><ele></ele><time>2014-6-19T7:42:46Z</time></trkpt>
<trkpt lat="46.81452513" lon="7.02697992"><ele></ele><time>2014-6-19T7:42:49Z</time></trkpt>
<trkpt lat="46.81456804" lon="7.02687263"><ele></ele><time>2014-6-19T7:42:52Z</time></trkpt>
<trkpt lat="46.81454659" lon="7.02685118"><ele></ele><time>2014-6-19T7:42:55Z</time></trkpt>
<trkpt lat="46.81458950" lon="7.02657223"><ele></ele><time>2014-6-19T7:42:58Z</time></trkpt>
<trkpt lat="46.81461096" lon="7.02644348"><ele></ele><time>2014-6-19T7:43:1Z</time></trkpt>
<trkpt lat="46.81461096" lon="7.02637911"><ele></ele><time>2014-6-19T7:43:4Z</time></trkpt>
<trkpt lat="46.81458950" lon="7.02586412"><ele></ele><time>2014-6-19T7:43:7Z</time></trkpt>
<trkpt lat="46.81458950" lon="7.02573538"><ele></ele><time>2014-6-19T7:43:10Z</time></trkpt>
<trkpt lat="46.81458950" lon="7.02560663"><ele></ele><time>2014-6-19T7:43:13Z</time></trkpt>
<trkpt lat="46.81454659" lon="7.02513456"><ele></ele><time>2014-6-19T7:43:16Z</time></trkpt>
<trkpt lat="46.81452513" lon="7.02502728"><ele></ele><time>2014-6-19T7:43:19Z</time></trkpt>
<trkpt lat="46.81448221" lon="7.02479124"><ele></ele><time>2014-6-19T7:43:22Z</time></trkpt>
<trkpt lat="46.81424618" lon="7.02421188"><ele></ele><time>2014-6-19T7:43:25Z</time></trkpt>
<trkpt lat="46.81407452" lon="7.02367544"><ele></ele><time>2014-6-19T7:43:28Z</time></trkpt>
<trkpt lat="46.81385994" lon="7.02281713"><ele></ele><time>2014-6-19T7:43:31Z</time></trkpt>
<trkpt lat="46.81375265" lon="7.02238798"><ele></ele><time>2014-6-19T7:43:34Z</time></trkpt>
<trkpt lat="46.81370974" lon="7.02176571"><ele></ele><time>2014-6-19T7:43:37Z</time></trkpt>
<trkpt lat="46.81370974" lon="7.02129364"><ele></ele><time>2014-6-19T7:43:40Z</time></trkpt>
<trkpt lat="46.81366682" lon="7.02022076"><ele></ele><time>2014-6-19T7:43:43Z</time></trkpt>
<trkpt lat="46.81360245" lon="7.01942682"><ele></ele><time>2014-6-19T7:43:46Z</time></trkpt>
<trkpt lat="46.81349516" lon="7.01828957"><ele></ele><time>2014-6-19T7:43:49Z</time></trkpt>
<trkpt lat="46.81349516" lon="7.01732397"><ele></ele><time>2014-6-19T7:43:52Z</time></trkpt>
<trkpt lat="46.81355953" lon="7.01633692"><ele></ele><time>2014-6-19T7:43:55Z</time></trkpt>
<trkpt lat="46.81353807" lon="7.01605797"><ele></ele><time>2014-6-19T7:43:58Z</time></trkpt>
<trkpt lat="46.81353807" lon="7.01487780"><ele></ele><time>2014-6-19T7:44:1Z</time></trkpt>
<trkpt lat="46.81355953" lon="7.01416969"><ele></ele><time>2014-6-19T7:44:4Z</time></trkpt>
<trkpt lat="46.81358099" lon="7.01369762"><ele></ele><time>2014-6-19T7:44:7Z</time></trkpt>
<trkpt lat="46.81360245" lon="7.01273203"><ele></ele><time>2014-6-19T7:44:10Z</time></trkpt>
<trkpt lat="46.81351662" lon="7.01219559"><ele></ele><time>2014-6-19T7:44:13Z</time></trkpt>
<trkpt lat="46.81349516" lon="7.01178789"><ele></ele><time>2014-6-19T7:44:16Z</time></trkpt>
<trkpt lat="46.81345224" lon="7.01155186"><ele></ele><time>2014-6-19T7:44:19Z</time></trkpt>
<trkpt lat="46.81328058" lon="7.01142311"><ele></ele><time>2014-6-19T7:44:22Z</time></trkpt>
<trkpt lat="46.81313038" lon="7.01165915"><ele></ele><time>2014-6-19T7:44:25Z</time></trkpt>
<trkpt lat="46.81304455" lon="7.01187372"><ele></ele><time>2014-6-19T7:44:28Z</time></trkpt>
<trkpt lat="46.81298018" lon="7.01219559"><ele></ele><time>2014-6-19T7:44:31Z</time></trkpt>
<trkpt lat="46.81287289" lon="7.01260328"><ele></ele><time>2014-6-19T7:44:34Z</time></trkpt>
<trkpt lat="46.81285143" lon="7.01298952"><ele></ele><time>2014-6-19T7:44:37Z</time></trkpt>
<trkpt lat="46.81287289" lon="7.01341867"><ele></ele><time>2014-6-19T7:44:40Z</time></trkpt>
<trkpt lat="46.81287289" lon="7.01374054"><ele></ele><time>2014-6-19T7:44:43Z</time></trkpt>
<trkpt lat="46.81285143" lon="7.01380491"><ele></ele><time>2014-6-19T7:44:46Z</time></trkpt>
<trkpt lat="46.81276560" lon="7.01395512"><ele></ele><time>2014-6-19T7:44:49Z</time></trkpt>
<trkpt lat="46.81270123" lon="7.01399803"><ele></ele><time>2014-6-19T7:44:52Z</time></trkpt>
<trkpt lat="46.81252956" lon="7.01395512"><ele></ele><time>2014-6-19T7:44:55Z</time></trkpt>
<trkpt lat="46.81240082" lon="7.01384783"><ele></ele><time>2014-6-19T7:44:58Z</time></trkpt>
<trkpt lat="46.81222916" lon="7.01363325"><ele></ele><time>2014-6-19T7:45:1Z</time></trkpt>
<trkpt lat="46.81205750" lon="7.01328993"><ele></ele><time>2014-6-19T7:45:4Z</time></trkpt>
<trkpt lat="46.81190729" lon="7.01288223"><ele></ele><time>2014-6-19T7:45:7Z</time></trkpt>
<trkpt lat="46.81182146" lon="7.01253891"><ele></ele><time>2014-6-19T7:45:10Z</time></trkpt>
<trkpt lat="46.81173563" lon="7.01225996"><ele></ele><time>2014-6-19T7:45:13Z</time></trkpt>
<trkpt lat="46.81169271" lon="7.01208830"><ele></ele><time>2014-6-19T7:45:16Z</time></trkpt>
<trkpt lat="46.81162834" lon="7.01187372"><ele></ele><time>2014-6-19T7:45:19Z</time></trkpt>
<trkpt lat="46.81152105" lon="7.01155186"><ele></ele><time>2014-6-19T7:45:22Z</time></trkpt>
<trkpt lat="46.81141376" lon="7.01125145"><ele></ele><time>2014-6-19T7:45:25Z</time></trkpt>
<trkpt lat="46.81134939" lon="7.01095104"><ele></ele><time>2014-6-19T7:45:28Z</time></trkpt>
<trkpt lat="46.81134939" lon="7.01086521"><ele></ele><time>2014-6-19T7:45:31Z</time></trkpt>
<trkpt lat="46.81126356" lon="7.01067209"><ele></ele><time>2014-6-19T7:45:34Z</time></trkpt>
<trkpt lat="46.81115627" lon="7.01050043"><ele></ele><time>2014-6-19T7:45:37Z</time></trkpt>
<trkpt lat="46.81113482" lon="7.01047897"><ele></ele><time>2014-6-19T7:45:40Z</time></trkpt>
<trkpt lat="46.81107044" lon="7.01056480"><ele></ele><time>2014-6-19T7:45:43Z</time></trkpt>
<trkpt lat="46.81102753" lon="7.01071501"><ele></ele><time>2014-6-19T7:45:46Z</time></trkpt>
<trkpt lat="46.81098461" lon="7.01088667"><ele></ele><time>2014-6-19T7:45:49Z</time></trkpt>
<trkpt lat="46.81098461" lon="7.01090813"><ele></ele><time>2014-6-19T7:45:52Z</time></trkpt>
<trkpt lat="46.81098461" lon="7.01101542"><ele></ele><time>2014-6-19T7:45:55Z</time></trkpt>
<trkpt lat="46.81098461" lon="7.01116562"><ele></ele><time>2014-6-19T7:45:58Z</time></trkpt>
<trkpt lat="46.81098461" lon="7.01131582"><ele></ele><time>2014-6-19T7:46:1Z</time></trkpt>
<trkpt lat="46.81100607" lon="7.01157331"><ele></ele><time>2014-6-19T7:46:4Z</time></trkpt>
<trkpt lat="46.81109190" lon="7.01200247"><ele></ele><time>2014-6-19T7:46:7Z</time></trkpt>
<trkpt lat="46.81117773" lon="7.01251745"><ele></ele><time>2014-6-19T7:46:10Z</time></trkpt>
<trkpt lat="46.81122065" lon="7.01307535"><ele></ele><time>2014-6-19T7:46:13Z</time></trkpt>
<trkpt lat="46.81128502" lon="7.01361179"><ele></ele><time>2014-6-19T7:46:16Z</time></trkpt>
<trkpt lat="46.81134939" lon="7.01397657"><ele></ele><time>2014-6-19T7:46:19Z</time></trkpt>
<trkpt lat="46.81139231" lon="7.01438427"><ele></ele><time>2014-6-19T7:46:22Z</time></trkpt>
<trkpt lat="46.81154251" lon="7.01483488"><ele></ele><time>2014-6-19T7:46:25Z</time></trkpt>
<trkpt lat="46.81164980" lon="7.01530695"><ele></ele><time>2014-6-19T7:46:28Z</time></trkpt>
<trkpt lat="46.81173563" lon="7.01573610"><ele></ele><time>2014-6-19T7:46:31Z</time></trkpt>
<trkpt lat="46.81175709" lon="7.01622963"><ele></ele><time>2014-6-19T7:46:34Z</time></trkpt>
<trkpt lat="46.81171417" lon="7.01663733"><ele></ele><time>2014-6-19T7:46:37Z</time></trkpt>
<trkpt lat="46.81173563" lon="7.01695919"><ele></ele><time>2014-6-19T7:46:40Z</time></trkpt>
<trkpt lat="46.81169271" lon="7.01710939"><ele></ele><time>2014-6-19T7:46:43Z</time></trkpt>
<trkpt lat="46.81152105" lon="7.01719522"><ele></ele><time>2014-6-19T7:46:46Z</time></trkpt>
<trkpt lat="46.81141376" lon="7.01693773"><ele></ele><time>2014-6-19T7:46:49Z</time></trkpt>
<trkpt lat="46.81134939" lon="7.01644421"><ele></ele><time>2014-6-19T7:46:52Z</time></trkpt>
<trkpt lat="46.81124210" lon="7.01586485"><ele></ele><time>2014-6-19T7:46:55Z</time></trkpt>
<trkpt lat="46.81117773" lon="7.01562881"><ele></ele><time>2014-6-19T7:46:58Z</time></trkpt>
<trkpt lat="46.81109190" lon="7.01534986"><ele></ele><time>2014-6-19T7:47:1Z</time></trkpt>
<trkpt lat="46.81100607" lon="7.01504946"><ele></ele><time>2014-6-19T7:47:4Z</time></trkpt>
<trkpt lat="46.81089878" lon="7.01477051"><ele></ele><time>2014-6-19T7:47:7Z</time></trkpt>
<trkpt lat="46.81079149" lon="7.01449156"><ele></ele><time>2014-6-19T7:47:10Z</time></trkpt>
<trkpt lat="46.81072712" lon="7.01438427"><ele></ele><time>2014-6-19T7:47:13Z</time></trkpt>
<trkpt lat="46.81049109" lon="7.01371908"><ele></ele><time>2014-6-19T7:47:16Z</time></trkpt>
<trkpt lat="46.81025505" lon="7.01307535"><ele></ele><time>2014-6-19T7:47:19Z</time></trkpt>
<trkpt lat="46.81012630" lon="7.01271057"><ele></ele><time>2014-6-19T7:47:22Z</time></trkpt>
<trkpt lat="46.80997610" lon="7.01232433"><ele></ele><time>2014-6-19T7:47:25Z</time></trkpt>
<trkpt lat="46.80986881" lon="7.01206684"><ele></ele><time>2014-6-19T7:47:28Z</time></trkpt>
<trkpt lat="46.80976152" lon="7.01183081"><ele></ele><time>2014-6-19T7:47:31Z</time></trkpt>
<trkpt lat="46.80963278" lon="7.01148748"><ele></ele><time>2014-6-19T7:47:34Z</time></trkpt>
<trkpt lat="46.80950403" lon="7.01116562"><ele></ele><time>2014-6-19T7:47:37Z</time></trkpt>
<trkpt lat="46.80935383" lon="7.01084375"><ele></ele><time>2014-6-19T7:47:40Z</time></trkpt>
<trkpt lat="46.80894613" lon="7.01007128"><ele></ele><time>2014-6-19T7:47:43Z</time></trkpt>
<trkpt lat="46.80851698" lon="7.00938463"><ele></ele><time>2014-6-19T7:47:46Z</time></trkpt>
<trkpt lat="46.80834532" lon="7.00906277"><ele></ele><time>2014-6-19T7:47:49Z</time></trkpt>
<trkpt lat="46.80780888" lon="7.00814009"><ele></ele><time>2014-6-19T7:47:52Z</time></trkpt>
<trkpt lat="46.80774450" lon="7.00801134"><ele></ele><time>2014-6-19T7:47:55Z</time></trkpt>
<trkpt lat="46.80750847" lon="7.00756073"><ele></ele><time>2014-6-19T7:47:58Z</time></trkpt>
<trkpt lat="46.80735826" lon="7.00700283"><ele></ele><time>2014-6-19T7:48:1Z</time></trkpt>
<trkpt lat="46.80720806" lon="7.00610161"><ele></ele><time>2014-6-19T7:48:4Z</time></trkpt>
<trkpt lat="46.80720806" lon="7.00599432"><ele></ele><time>2014-6-19T7:48:7Z</time></trkpt>
<trkpt lat="46.80744410" lon="7.00605869"><ele></ele><time>2014-6-19T7:48:10Z</time></trkpt>
<trkpt lat="46.80755138" lon="7.00618744"><ele></ele><time>2014-6-19T7:48:13Z</time></trkpt>
<trkpt lat="46.80772305" lon="7.00633764"><ele></ele><time>2014-6-19T7:48:16Z</time></trkpt>
<trkpt lat="46.80800200" lon="7.00629473"><ele></ele><time>2014-6-19T7:48:19Z</time></trkpt>
<trkpt lat="46.80806637" lon="7.00625181"><ele></ele><time>2014-6-19T7:48:22Z</time></trkpt>
<trkpt lat="46.80868864" lon="7.00584412"><ele></ele><time>2014-6-19T7:48:25Z</time></trkpt>
<trkpt lat="46.80888176" lon="7.00573683"><ele></ele><time>2014-6-19T7:48:28Z</time></trkpt>
<trkpt lat="46.80905342" lon="7.00560808"><ele></ele><time>2014-6-19T7:48:31Z</time></trkpt>
<trkpt lat="46.80935383" lon="7.00571537"><ele></ele><time>2014-6-19T7:48:34Z</time></trkpt>
<trkpt lat="46.80982590" lon="7.00601578"><ele></ele><time>2014-6-19T7:48:37Z</time></trkpt>
<trkpt lat="46.81023359" lon="7.00603724"><ele></ele><time>2014-6-19T7:48:40Z</time></trkpt>
<trkpt lat="46.81057692" lon="7.00631618"><ele></ele><time>2014-6-19T7:48:43Z</time></trkpt>
<trkpt lat="46.81061983" lon="7.00642347"><ele></ele><time>2014-6-19T7:48:46Z</time></trkpt>
<trkpt lat="46.81100607" lon="7.00751781"><ele></ele><time>2014-6-19T7:48:49Z</time></trkpt>
<trkpt lat="46.81104898" lon="7.00762510"><ele></ele><time>2014-6-19T7:48:52Z</time></trkpt>
<trkpt lat="46.81130648" lon="7.00779676"><ele></ele><time>2014-6-19T7:48:55Z</time></trkpt>
<trkpt lat="46.81162834" lon="7.00786114"><ele></ele><time>2014-6-19T7:48:58Z</time></trkpt>
<trkpt lat="46.81190729" lon="7.00768948"><ele></ele><time>2014-6-19T7:49:1Z</time></trkpt>
<trkpt lat="46.81188583" lon="7.00719595"><ele></ele><time>2014-6-19T7:49:4Z</time></trkpt>
<trkpt lat="46.81184292" lon="7.00680971"><ele></ele><time>2014-6-19T7:49:7Z</time></trkpt>
<trkpt lat="46.81173563" lon="7.00640202"><ele></ele><time>2014-6-19T7:49:10Z</time></trkpt>
<trkpt lat="46.81164980" lon="7.00620890"><ele></ele><time>2014-6-19T7:49:13Z</time></trkpt>
<trkpt lat="46.81152105" lon="7.00590849"><ele></ele><time>2014-6-19T7:49:16Z</time></trkpt>
<trkpt lat="46.81143522" lon="7.00573683"><ele></ele><time>2014-6-19T7:49:19Z</time></trkpt>
<trkpt lat="46.81128502" lon="7.00547934"><ele></ele><time>2014-6-19T7:49:22Z</time></trkpt>
<trkpt lat="46.81109190" lon="7.00520039"><ele></ele><time>2014-6-19T7:49:25Z</time></trkpt>
<trkpt lat="46.81094170" lon="7.00494289"><ele></ele><time>2014-6-19T7:49:28Z</time></trkpt>
<trkpt lat="46.81089878" lon="7.00455666"><ele></ele><time>2014-6-19T7:49:31Z</time></trkpt>
<trkpt lat="46.81089878" lon="7.00449228"><ele></ele><time>2014-6-19T7:49:34Z</time></trkpt>
<trkpt lat="46.81092024" lon="7.00423479"><ele></ele><time>2014-6-19T7:49:37Z</time></trkpt>
<trkpt lat="46.81094170" lon="7.00408459"><ele></ele><time>2014-6-19T7:49:40Z</time></trkpt>
<trkpt lat="46.81089878" lon="7.00369835"><ele></ele><time>2014-6-19T7:49:43Z</time></trkpt>
<trkpt lat="46.81085587" lon="7.00356960"><ele></ele><time>2014-6-19T7:49:46Z</time></trkpt>
<trkpt lat="46.81074858" lon="7.00296879"><ele></ele><time>2014-6-19T7:49:49Z</time></trkpt>
<trkpt lat="46.81070566" lon="7.00281858"><ele></ele><time>2014-6-19T7:49:52Z</time></trkpt>
<trkpt lat="46.81055546" lon="7.00206757"><ele></ele><time>2014-6-19T7:49:55Z</time></trkpt>
<trkpt lat="46.81053400" lon="7.00189590"><ele></ele><time>2014-6-19T7:49:58Z</time></trkpt>
<trkpt lat="46.81042671" lon="7.00140238"><ele></ele><time>2014-6-19T7:50:1Z</time></trkpt>
<trkpt lat="46.81036234" lon="7.00103760"><ele></ele><time>2014-6-19T7:50:4Z</time></trkpt>
<trkpt lat="46.81038380" lon="7.00067282"><ele></ele><time>2014-6-19T7:50:7Z</time></trkpt>
<trkpt lat="46.81046963" lon="7.00039387"><ele></ele><time>2014-6-19T7:50:10Z</time></trkpt>
<trkpt lat="46.81064129" lon="6.99949265"><ele></ele><time>2014-6-19T7:50:13Z</time></trkpt>
<trkpt lat="46.81064129" lon="6.99923515"><ele></ele><time>2014-6-19T7:50:16Z</time></trkpt>
<trkpt lat="46.81059837" lon="6.99869871"><ele></ele><time>2014-6-19T7:50:19Z</time></trkpt>
<trkpt lat="46.81057692" lon="6.99861288"><ele></ele><time>2014-6-19T7:50:22Z</time></trkpt>
<trkpt lat="46.81051254" lon="6.99835539"><ele></ele><time>2014-6-19T7:50:25Z</time></trkpt>
<trkpt lat="46.81036234" lon="6.99786186"><ele></ele><time>2014-6-19T7:50:28Z</time></trkpt>
<trkpt lat="46.81025505" lon="6.99756145"><ele></ele><time>2014-6-19T7:50:31Z</time></trkpt>
<trkpt lat="46.81019068" lon="6.99745417"><ele></ele><time>2014-6-19T7:50:34Z</time></trkpt>
<trkpt lat="46.80974007" lon="6.99715376"><ele></ele><time>2014-6-19T7:50:37Z</time></trkpt>
<trkpt lat="46.80913925" lon="6.99693918"><ele></ele><time>2014-6-19T7:50:40Z</time></trkpt>
<trkpt lat="46.80898905" lon="6.99691772"><ele></ele><time>2014-6-19T7:50:43Z</time></trkpt>
<trkpt lat="46.80868864" lon="6.99689627"><ele></ele><time>2014-6-19T7:50:46Z</time></trkpt>
<trkpt lat="46.80858135" lon="6.99698210"><ele></ele><time>2014-6-19T7:50:49Z</time></trkpt>
<trkpt lat="46.80858135" lon="6.99700356"><ele></ele><time>2014-6-19T7:50:52Z</time></trkpt>
<trkpt lat="46.80855989" lon="6.99726105"><ele></ele><time>2014-6-19T7:50:55Z</time></trkpt>
<trkpt lat="46.80871010" lon="6.99738979"><ele></ele><time>2014-6-19T7:50:58Z</time></trkpt>
<trkpt lat="46.80888176" lon="6.99749708"><ele></ele><time>2014-6-19T7:51:1Z</time></trkpt>
<trkpt lat="46.80901051" lon="6.99766874"><ele></ele><time>2014-6-19T7:51:4Z</time></trkpt>
<trkpt lat="46.80911779" lon="6.99781895"><ele></ele><time>2014-6-19T7:51:7Z</time></trkpt>
<trkpt lat="46.80918217" lon="6.99803352"><ele></ele><time>2014-6-19T7:51:10Z</time></trkpt>
<trkpt lat="46.80924654" lon="6.99822664"><ele></ele><time>2014-6-19T7:51:13Z</time></trkpt>
<trkpt lat="46.80920362" lon="6.99831247"><ele></ele><time>2014-6-19T7:51:16Z</time></trkpt>
<trkpt lat="46.80920362" lon="6.99831247"><ele></ele><time>2014-6-19T7:51:19Z</time></trkpt>
<trkpt lat="46.80913925" lon="6.99829102"><ele></ele><time>2014-6-19T7:51:22Z</time></trkpt>
<trkpt lat="46.80901051" lon="6.99822664"><ele></ele><time>2014-6-19T7:51:25Z</time></trkpt>
<trkpt lat="46.80886030" lon="6.99811935"><ele></ele><time>2014-6-19T7:51:28Z</time></trkpt>
<trkpt lat="46.80866718" lon="6.99809790"><ele></ele><time>2014-6-19T7:51:31Z</time></trkpt>
<trkpt lat="46.80853844" lon="6.99820518"><ele></ele><time>2014-6-19T7:51:34Z</time></trkpt>
<trkpt lat="46.80851698" lon="6.99831247"><ele></ele><time>2014-6-19T7:51:37Z</time></trkpt>
<trkpt lat="46.80849552" lon="6.99841976"><ele></ele><time>2014-6-19T7:51:40Z</time></trkpt>
<trkpt lat="46.80849552" lon="6.99846268"><ele></ele><time>2014-6-19T7:51:43Z</time></trkpt>
<trkpt lat="46.80847406" lon="6.99856997"><ele></ele><time>2014-6-19T7:51:46Z</time></trkpt>
<trkpt lat="46.80845261" lon="6.99876308"><ele></ele><time>2014-6-19T7:51:49Z</time></trkpt>
<trkpt lat="46.80840969" lon="6.99884892"><ele></ele><time>2014-6-19T7:51:52Z</time></trkpt>
<trkpt lat="46.80830240" lon="6.99893475"><ele></ele><time>2014-6-19T7:51:55Z</time></trkpt>
<trkpt lat="46.80825949" lon="6.99893475"><ele></ele><time>2014-6-19T7:51:58Z</time></trkpt>
<trkpt lat="46.80806637" lon="6.99897766"><ele></ele><time>2014-6-19T7:52:1Z</time></trkpt>
<trkpt lat="46.80793762" lon="6.99906349"><ele></ele><time>2014-6-19T7:52:4Z</time></trkpt>
<trkpt lat="46.80789471" lon="6.99912786"><ele></ele><time>2014-6-19T7:52:7Z</time></trkpt>
<trkpt lat="46.80780888" lon="6.99932098"><ele></ele><time>2014-6-19T7:52:10Z</time></trkpt>
<trkpt lat="46.80778742" lon="6.99944973"><ele></ele><time>2014-6-19T7:52:13Z</time></trkpt>
<trkpt lat="46.80778742" lon="6.99947119"><ele></ele><time>2014-6-19T7:52:16Z</time></trkpt>
<trkpt lat="46.80776596" lon="6.99955702"><ele></ele><time>2014-6-19T7:52:19Z</time></trkpt>
<trkpt lat="46.80770159" lon="6.99962139"><ele></ele><time>2014-6-19T7:52:22Z</time></trkpt>
<trkpt lat="46.80759430" lon="6.99968576"><ele></ele><time>2014-6-19T7:52:25Z</time></trkpt>
<trkpt lat="46.80746555" lon="6.99972868"><ele></ele><time>2014-6-19T7:52:28Z</time></trkpt>
<trkpt lat="46.80742264" lon="6.99977160"><ele></ele><time>2014-6-19T7:52:31Z</time></trkpt>
<trkpt lat="46.80737972" lon="6.99979305"><ele></ele><time>2014-6-19T7:52:34Z</time></trkpt>
<trkpt lat="46.80725098" lon="6.99990034"><ele></ele><time>2014-6-19T7:52:37Z</time></trkpt>
<trkpt lat="46.80690765" lon="7.00020075"><ele></ele><time>2014-6-19T7:52:40Z</time></trkpt>
<trkpt lat="46.80667162" lon="7.00052261"><ele></ele><time>2014-6-19T7:52:43Z</time></trkpt>
<trkpt lat="46.80652142" lon="7.00086594"><ele></ele><time>2014-6-19T7:52:46Z</time></trkpt>
<trkpt lat="46.80649996" lon="7.00116634"><ele></ele><time>2014-6-19T7:52:49Z</time></trkpt>
<trkpt lat="46.80649996" lon="7.00127363"><ele></ele><time>2014-6-19T7:52:52Z</time></trkpt>
<trkpt lat="46.80643559" lon="7.00178862"><ele></ele><time>2014-6-19T7:52:55Z</time></trkpt>
<trkpt lat="46.80619955" lon="7.00215340"><ele></ele><time>2014-6-19T7:52:58Z</time></trkpt>
<trkpt lat="46.80611372" lon="7.00230360"><ele></ele><time>2014-6-19T7:53:1Z</time></trkpt>
<trkpt lat="46.80596352" lon="7.00251818"><ele></ele><time>2014-6-19T7:53:4Z</time></trkpt>
<trkpt lat="46.80574894" lon="7.00299025"><ele></ele><time>2014-6-19T7:53:7Z</time></trkpt>
<trkpt lat="46.80551291" lon="7.00350523"><ele></ele><time>2014-6-19T7:53:10Z</time></trkpt>
<trkpt lat="46.80542707" lon="7.00369835"><ele></ele><time>2014-6-19T7:53:13Z</time></trkpt>
<trkpt lat="46.80549145" lon="7.00408459"><ele></ele><time>2014-6-19T7:53:16Z</time></trkpt>
<trkpt lat="46.80549145" lon="7.00412750"><ele></ele><time>2014-6-19T7:53:19Z</time></trkpt>
<trkpt lat="46.80546999" lon="7.00438499"><ele></ele><time>2014-6-19T7:53:22Z</time></trkpt>
<trkpt lat="46.80549145" lon="7.00457811"><ele></ele><time>2014-6-19T7:53:25Z</time></trkpt>
<trkpt lat="46.80551291" lon="7.00472832"><ele></ele><time>2014-6-19T7:53:28Z</time></trkpt>
<trkpt lat="46.80555582" lon="7.00489998"><ele></ele><time>2014-6-19T7:53:31Z</time></trkpt>
<trkpt lat="46.80557728" lon="7.00498581"><ele></ele><time>2014-6-19T7:53:34Z</time></trkpt>
<trkpt lat="46.80559874" lon="7.00511456"><ele></ele><time>2014-6-19T7:53:37Z</time></trkpt>
<trkpt lat="46.80557728" lon="7.00528622"><ele></ele><time>2014-6-19T7:53:40Z</time></trkpt>
<trkpt lat="46.80555582" lon="7.00537205"><ele></ele><time>2014-6-19T7:53:43Z</time></trkpt>
<trkpt lat="46.80555582" lon="7.00545788"><ele></ele><time>2014-6-19T7:53:46Z</time></trkpt>
<trkpt lat="46.80553436" lon="7.00554371"><ele></ele><time>2014-6-19T7:53:49Z</time></trkpt>
<trkpt lat="46.80553436" lon="7.00567245"><ele></ele><time>2014-6-19T7:53:52Z</time></trkpt>
<trkpt lat="46.80551291" lon="7.00592995"><ele></ele><time>2014-6-19T7:53:55Z</time></trkpt>
<trkpt lat="46.80546999" lon="7.00605869"><ele></ele><time>2014-6-19T7:53:58Z</time></trkpt>
<trkpt lat="46.80538416" lon="7.00620890"><ele></ele><time>2014-6-19T7:54:1Z</time></trkpt>
<trkpt lat="46.80529833" lon="7.00631618"><ele></ele><time>2014-6-19T7:54:4Z</time></trkpt>
<trkpt lat="46.80523396" lon="7.00644493"><ele></ele><time>2014-6-19T7:54:7Z</time></trkpt>
<trkpt lat="46.80521250" lon="7.00657368"><ele></ele><time>2014-6-19T7:54:10Z</time></trkpt>
<trkpt lat="46.80521250" lon="7.00665951"><ele></ele><time>2014-6-19T7:54:13Z</time></trkpt>
<trkpt lat="46.80523396" lon="7.00680971"><ele></ele><time>2014-6-19T7:54:16Z</time></trkpt>
<trkpt lat="46.80523396" lon="7.00683117"><ele></ele><time>2014-6-19T7:54:19Z</time></trkpt>
<trkpt lat="46.80523396" lon="7.00700283"><ele></ele><time>2014-6-19T7:54:22Z</time></trkpt>
<trkpt lat="46.80523396" lon="7.00713158"><ele></ele><time>2014-6-19T7:54:25Z</time></trkpt>
<trkpt lat="46.80525541" lon="7.00726032"><ele></ele><time>2014-6-19T7:54:28Z</time></trkpt>
<trkpt lat="46.80525541" lon="7.00736761"><ele></ele><time>2014-6-19T7:54:31Z</time></trkpt>
<trkpt lat="46.80525541" lon="7.00741053"><ele></ele><time>2014-6-19T7:54:34Z</time></trkpt>
<trkpt lat="46.80527687" lon="7.00751781"><ele></ele><time>2014-6-19T7:54:37Z</time></trkpt>
<trkpt lat="46.80534124" lon="7.00764656"><ele></ele><time>2014-6-19T7:54:40Z</time></trkpt>
<trkpt lat="46.80540562" lon="7.00775385"><ele></ele><time>2014-6-19T7:54:43Z</time></trkpt>
<trkpt lat="46.80544853" lon="7.00781822"><ele></ele><time>2014-6-19T7:54:46Z</time></trkpt>
<trkpt lat="46.80551291" lon="7.00788260"><ele></ele><time>2014-6-19T7:54:49Z</time></trkpt>
<trkpt lat="46.80557728" lon="7.00794697"><ele></ele><time>2014-6-19T7:54:52Z</time></trkpt>
<trkpt lat="46.80583477" lon="7.00775385"><ele></ele><time>2014-6-19T7:54:55Z</time></trkpt>
<trkpt lat="46.80594206" lon="7.00773239"><ele></ele><time>2014-6-19T7:54:58Z</time></trkpt>
<trkpt lat="46.80596352" lon="7.00783968"><ele></ele><time>2014-6-19T7:55:1Z</time></trkpt>
<trkpt lat="46.80589914" lon="7.00807571"><ele></ele><time>2014-6-19T7:55:4Z</time></trkpt>
<trkpt lat="46.80583477" lon="7.00837612"><ele></ele><time>2014-6-19T7:55:7Z</time></trkpt>
<trkpt lat="46.80574894" lon="7.00880527"><ele></ele><time>2014-6-19T7:55:10Z</time></trkpt>
<trkpt lat="46.80562019" lon="7.00919151"><ele></ele><time>2014-6-19T7:55:13Z</time></trkpt>
<trkpt lat="46.80534124" lon="7.00987816"><ele></ele><time>2014-6-19T7:55:16Z</time></trkpt>
<trkpt lat="46.80516958" lon="7.01028585"><ele></ele><time>2014-6-19T7:55:19Z</time></trkpt>
<trkpt lat="46.80504084" lon="7.01054335"><ele></ele><time>2014-6-19T7:55:22Z</time></trkpt>
<trkpt lat="46.80493355" lon="7.01080084"><ele></ele><time>2014-6-19T7:55:25Z</time></trkpt>
<trkpt lat="46.80476189" lon="7.01114416"><ele></ele><time>2014-6-19T7:55:28Z</time></trkpt>
<trkpt lat="46.80446148" lon="7.01146603"><ele></ele><time>2014-6-19T7:55:31Z</time></trkpt>
<trkpt lat="46.80424690" lon="7.01180935"><ele></ele><time>2014-6-19T7:55:34Z</time></trkpt>
<trkpt lat="46.80409670" lon="7.01223850"><ele></ele><time>2014-6-19T7:55:37Z</time></trkpt>
<trkpt lat="46.80394650" lon="7.01279640"><ele></ele><time>2014-6-19T7:55:40Z</time></trkpt>
<trkpt lat="46.80371046" lon="7.01367617"><ele></ele><time>2014-6-19T7:55:43Z</time></trkpt>
<trkpt lat="46.80341005" lon="7.01429844"><ele></ele><time>2014-6-19T7:55:46Z</time></trkpt>
<trkpt lat="46.80300236" lon="7.01479197"><ele></ele><time>2014-6-19T7:55:49Z</time></trkpt>
<trkpt lat="46.80257320" lon="7.01558590"><ele></ele><time>2014-6-19T7:55:52Z</time></trkpt>
<trkpt lat="46.80253029" lon="7.01573610"><ele></ele><time>2014-6-19T7:55:55Z</time></trkpt>
<trkpt lat="46.80240154" lon="7.01622963"><ele></ele><time>2014-6-19T7:55:58Z</time></trkpt>
<trkpt lat="46.80214405" lon="7.01661587"><ele></ele><time>2014-6-19T7:56:1Z</time></trkpt>
<trkpt lat="46.80190802" lon="7.01672316"><ele></ele><time>2014-6-19T7:56:4Z</time></trkpt>
<trkpt lat="46.80169344" lon="7.01689482"><ele></ele><time>2014-6-19T7:56:7Z</time></trkpt>
<trkpt lat="46.80154324" lon="7.01708794"><ele></ele><time>2014-6-19T7:56:10Z</time></trkpt>
<trkpt lat="46.80128574" lon="7.01749563"><ele></ele><time>2014-6-19T7:56:13Z</time></trkpt>
<trkpt lat="46.80102825" lon="7.01794624"><ele></ele><time>2014-6-19T7:56:16Z</time></trkpt>
<trkpt lat="46.80089951" lon="7.01837540"><ele></ele><time>2014-6-19T7:56:19Z</time></trkpt>
<trkpt lat="46.80083513" lon="7.01906204"><ele></ele><time>2014-6-19T7:56:22Z</time></trkpt>
<trkpt lat="46.80079222" lon="7.01992035"><ele></ele><time>2014-6-19T7:56:25Z</time></trkpt>
<trkpt lat="46.80074930" lon="7.02101469"><ele></ele><time>2014-6-19T7:56:28Z</time></trkpt>
<trkpt lat="46.80072784" lon="7.02208757"><ele></ele><time>2014-6-19T7:56:31Z</time></trkpt>
<trkpt lat="46.80072784" lon="7.02326775"><ele></ele><time>2014-6-19T7:56:34Z</time></trkpt>
<trkpt lat="46.80079222" lon="7.02416897"><ele></ele><time>2014-6-19T7:56:37Z</time></trkpt>
<trkpt lat="46.80066347" lon="7.02483416"><ele></ele><time>2014-6-19T7:56:40Z</time></trkpt>
<trkpt lat="46.80064201" lon="7.02496290"><ele></ele><time>2014-6-19T7:56:43Z</time></trkpt>
<trkpt lat="46.80064201" lon="7.02552080"><ele></ele><time>2014-6-19T7:56:46Z</time></trkpt>
<trkpt lat="46.80068493" lon="7.02594995"><ele></ele><time>2014-6-19T7:56:49Z</time></trkpt>
<trkpt lat="46.80081367" lon="7.02650785"><ele></ele><time>2014-6-19T7:56:52Z</time></trkpt>
<trkpt lat="46.80074930" lon="7.02652931"><ele></ele><time>2014-6-19T7:56:55Z</time></trkpt>
<trkpt lat="46.80072784" lon="7.02646494"><ele></ele><time>2014-6-19T7:56:58Z</time></trkpt>
<trkpt lat="46.80068493" lon="7.02640057"><ele></ele><time>2014-6-19T7:57:1Z</time></trkpt>
<trkpt lat="46.80029869" lon="7.02601433"><ele></ele><time>2014-6-19T7:57:4Z</time></trkpt>
<trkpt lat="46.79982662" lon="7.02579975"><ele></ele><time>2014-6-19T7:57:7Z</time></trkpt>
<trkpt lat="46.79971933" lon="7.02560663"><ele></ele><time>2014-6-19T7:57:10Z</time></trkpt>
<trkpt lat="46.79922581" lon="7.02491999"><ele></ele><time>2014-6-19T7:57:13Z</time></trkpt>
<trkpt lat="46.79875374" lon="7.02391148"><ele></ele><time>2014-6-19T7:57:16Z</time></trkpt>
<trkpt lat="46.79868937" lon="7.02378273"><ele></ele><time>2014-6-19T7:57:19Z</time></trkpt>
<trkpt lat="46.79828167" lon="7.02305317"><ele></ele><time>2014-6-19T7:57:22Z</time></trkpt>
<trkpt lat="46.79811001" lon="7.02228069"><ele></ele><time>2014-6-19T7:57:25Z</time></trkpt>
<trkpt lat="46.79795980" lon="7.02069283"><ele></ele><time>2014-6-19T7:57:28Z</time></trkpt>
<trkpt lat="46.79791689" lon="7.02026367"><ele></ele><time>2014-6-19T7:57:31Z</time></trkpt>
<trkpt lat="46.79795980" lon="7.01929808"><ele></ele><time>2014-6-19T7:57:34Z</time></trkpt>
<trkpt lat="46.79815292" lon="7.01824665"><ele></ele><time>2014-6-19T7:57:37Z</time></trkpt>
<trkpt lat="46.79823875" lon="7.01719522"><ele></ele><time>2014-6-19T7:57:40Z</time></trkpt>
<trkpt lat="46.79811001" lon="7.01631546"><ele></ele><time>2014-6-19T7:57:43Z</time></trkpt>
<trkpt lat="46.79806709" lon="7.01616526"><ele></ele><time>2014-6-19T7:57:46Z</time></trkpt>
<trkpt lat="46.79787397" lon="7.01592922"><ele></ele><time>2014-6-19T7:57:49Z</time></trkpt>
<trkpt lat="46.79750919" lon="7.01539278"><ele></ele><time>2014-6-19T7:57:52Z</time></trkpt>
<trkpt lat="46.79746628" lon="7.01532841"><ele></ele><time>2014-6-19T7:57:55Z</time></trkpt>
<trkpt lat="46.79735899" lon="7.01517820"><ele></ele><time>2014-6-19T7:57:58Z</time></trkpt>
<trkpt lat="46.79699421" lon="7.01489925"><ele></ele><time>2014-6-19T7:58:1Z</time></trkpt>
<trkpt lat="46.79686546" lon="7.01483488"><ele></ele><time>2014-6-19T7:58:4Z</time></trkpt>
<trkpt lat="46.79667234" lon="7.01459885"><ele></ele><time>2014-6-19T7:58:7Z</time></trkpt>
<trkpt lat="46.79645777" lon="7.01438427"><ele></ele><time>2014-6-19T7:58:10Z</time></trkpt>
<trkpt lat="46.79620028" lon="7.01406240"><ele></ele><time>2014-6-19T7:58:13Z</time></trkpt>
<trkpt lat="46.79600716" lon="7.01367617"><ele></ele><time>2014-6-19T7:58:16Z</time></trkpt>
<trkpt lat="46.79598570" lon="7.01367617"><ele></ele><time>2014-6-19T7:58:19Z</time></trkpt>
<trkpt lat="46.79592133" lon="7.01361179"><ele></ele><time>2014-6-19T7:58:22Z</time></trkpt>
<trkpt lat="46.79583549" lon="7.01348305"><ele></ele><time>2014-6-19T7:58:25Z</time></trkpt>
<trkpt lat="46.79564238" lon="7.01313972"><ele></ele><time>2014-6-19T7:58:28Z</time></trkpt>
<trkpt lat="46.79544926" lon="7.01283932"><ele></ele><time>2014-6-19T7:58:31Z</time></trkpt>
<trkpt lat="46.79544926" lon="7.01256037"><ele></ele><time>2014-6-19T7:58:34Z</time></trkpt>
<trkpt lat="46.79557800" lon="7.01236725"><ele></ele><time>2014-6-19T7:58:37Z</time></trkpt>
<trkpt lat="46.79562092" lon="7.01232433"><ele></ele><time>2014-6-19T7:58:40Z</time></trkpt>
<trkpt lat="46.79566383" lon="7.01230288"><ele></ele><time>2014-6-19T7:58:43Z</time></trkpt>
<trkpt lat="46.79564238" lon="7.01213121"><ele></ele><time>2014-6-19T7:58:46Z</time></trkpt>
<trkpt lat="46.79562092" lon="7.01208830"><ele></ele><time>2014-6-19T7:58:49Z</time></trkpt>
<trkpt lat="46.79555655" lon="7.01161623"><ele></ele><time>2014-6-19T7:58:52Z</time></trkpt>
<trkpt lat="46.79555655" lon="7.01144457"><ele></ele><time>2014-6-19T7:58:55Z</time></trkpt>
<trkpt lat="46.79547071" lon="7.01088667"><ele></ele><time>2014-6-19T7:58:58Z</time></trkpt>
<trkpt lat="46.79540634" lon="7.01069355"><ele></ele><time>2014-6-19T7:59:1Z</time></trkpt>
<trkpt lat="46.79536343" lon="7.01056480"><ele></ele><time>2014-6-19T7:59:4Z</time></trkpt>
<trkpt lat="46.79514885" lon="7.01041460"><ele></ele><time>2014-6-19T7:59:7Z</time></trkpt>
<trkpt lat="46.79499865" lon="7.01041460"><ele></ele><time>2014-6-19T7:59:10Z</time></trkpt>
<trkpt lat="46.79495573" lon="7.01041460"><ele></ele><time>2014-6-19T7:59:13Z</time></trkpt>
<trkpt lat="46.79482698" lon="7.01030731"><ele></ele><time>2014-6-19T7:59:16Z</time></trkpt>
<trkpt lat="46.79484844" lon="7.01011419"><ele></ele><time>2014-6-19T7:59:19Z</time></trkpt>
<trkpt lat="46.79491282" lon="7.00998545"><ele></ele><time>2014-6-19T7:59:22Z</time></trkpt>
<trkpt lat="46.79495573" lon="7.00968504"><ele></ele><time>2014-6-19T7:59:25Z</time></trkpt>
<trkpt lat="46.79491282" lon="7.00940609"><ele></ele><time>2014-6-19T7:59:28Z</time></trkpt>
<trkpt lat="46.79489136" lon="7.00936317"><ele></ele><time>2014-6-19T7:59:31Z</time></trkpt>
<trkpt lat="46.79474115" lon="7.00921297"><ele></ele><time>2014-6-19T7:59:34Z</time></trkpt>
<trkpt lat="46.79469824" lon="7.00917006"><ele></ele><time>2014-6-19T7:59:37Z</time></trkpt>
<trkpt lat="46.79456949" lon="7.00897694"><ele></ele><time>2014-6-19T7:59:40Z</time></trkpt>
<trkpt lat="46.79437637" lon="7.00863361"><ele></ele><time>2014-6-19T7:59:43Z</time></trkpt>
<trkpt lat="46.79411888" lon="7.00820446"><ele></ele><time>2014-6-19T7:59:46Z</time></trkpt>
<trkpt lat="46.79392576" lon="7.00779676"><ele></ele><time>2014-6-19T7:59:49Z</time></trkpt>
<trkpt lat="46.79379702" lon="7.00736761"><ele></ele><time>2014-6-19T7:59:52Z</time></trkpt>
<trkpt lat="46.79371119" lon="7.00715303"><ele></ele><time>2014-6-19T7:59:55Z</time></trkpt>
<trkpt lat="46.79362535" lon="7.00689554"><ele></ele><time>2014-6-19T7:59:58Z</time></trkpt>
<trkpt lat="46.79358244" lon="7.00674534"><ele></ele><time>2014-6-19T8:0:1Z</time></trkpt>
<trkpt lat="46.79351807" lon="7.00659513"><ele></ele><time>2014-6-19T8:0:4Z</time></trkpt>
<trkpt lat="46.79343224" lon="7.00638056"><ele></ele><time>2014-6-19T8:0:7Z</time></trkpt>
<trkpt lat="46.79323912" lon="7.00614452"><ele></ele><time>2014-6-19T8:0:10Z</time></trkpt>
<trkpt lat="46.79311037" lon="7.00605869"><ele></ele><time>2014-6-19T8:0:13Z</time></trkpt>
<trkpt lat="46.79272413" lon="7.00588703"><ele></ele><time>2014-6-19T8:0:16Z</time></trkpt>
<trkpt lat="46.79253101" lon="7.00547934"><ele></ele><time>2014-6-19T8:0:19Z</time></trkpt>
<trkpt lat="46.79250956" lon="7.00541496"><ele></ele><time>2014-6-19T8:0:22Z</time></trkpt>
<trkpt lat="46.79242373" lon="7.00479269"><ele></ele><time>2014-6-19T8:0:25Z</time></trkpt>
<trkpt lat="46.79227352" lon="7.00436354"><ele></ele><time>2014-6-19T8:0:28Z</time></trkpt>
<trkpt lat="46.79193020" lon="7.00393438"><ele></ele><time>2014-6-19T8:0:31Z</time></trkpt>
<trkpt lat="46.79195166" lon="7.00356960"><ele></ele><time>2014-6-19T8:0:34Z</time></trkpt>
<trkpt lat="46.79197311" lon="7.00350523"><ele></ele><time>2014-6-19T8:0:37Z</time></trkpt>
<trkpt lat="46.79199457" lon="7.00339794"><ele></ele><time>2014-6-19T8:0:40Z</time></trkpt>
<trkpt lat="46.79193020" lon="7.00301170"><ele></ele><time>2014-6-19T8:0:43Z</time></trkpt>
<trkpt lat="46.79184437" lon="7.00275421"><ele></ele><time>2014-6-19T8:0:46Z</time></trkpt>
<trkpt lat="46.79182291" lon="7.00262547"><ele></ele><time>2014-6-19T8:0:49Z</time></trkpt>
<trkpt lat="46.79190874" lon="7.00256109"><ele></ele><time>2014-6-19T8:0:52Z</time></trkpt>
<trkpt lat="46.79201603" lon="7.00273275"><ele></ele><time>2014-6-19T8:0:55Z</time></trkpt>
<trkpt lat="46.79210186" lon="7.00292587"><ele></ele><time>2014-6-19T8:0:58Z</time></trkpt>
<trkpt lat="46.79220915" lon="7.00320482"><ele></ele><time>2014-6-19T8:1:1Z</time></trkpt>
<trkpt lat="46.79233789" lon="7.00350523"><ele></ele><time>2014-6-19T8:1:4Z</time></trkpt>
<trkpt lat="46.79246664" lon="7.00376272"><ele></ele><time>2014-6-19T8:1:7Z</time></trkpt>
<trkpt lat="46.79246664" lon="7.00376272"><ele></ele><time>2014-6-19T8:1:10Z</time></trkpt>
<trkpt lat="46.79253101" lon="7.00374126"><ele></ele><time>2014-6-19T8:1:13Z</time></trkpt>
<trkpt lat="46.79259539" lon="7.00369835"><ele></ele><time>2014-6-19T8:1:16Z</time></trkpt>
<trkpt lat="46.79259539" lon="7.00352669"><ele></ele><time>2014-6-19T8:1:19Z</time></trkpt>
<trkpt lat="46.79246664" lon="7.00324774"><ele></ele><time>2014-6-19T8:1:22Z</time></trkpt>
<trkpt lat="46.79238081" lon="7.00303316"><ele></ele><time>2014-6-19T8:1:25Z</time></trkpt>
<trkpt lat="46.79235935" lon="7.00271130"><ele></ele><time>2014-6-19T8:1:28Z</time></trkpt>
<trkpt lat="46.79229498" lon="7.00241089"><ele></ele><time>2014-6-19T8:1:31Z</time></trkpt>
<trkpt lat="46.79223061" lon="7.00219631"><ele></ele><time>2014-6-19T8:1:34Z</time></trkpt>
<trkpt lat="46.79223061" lon="7.00206757"><ele></ele><time>2014-6-19T8:1:37Z</time></trkpt>
<trkpt lat="46.79227352" lon="7.00204611"><ele></ele><time>2014-6-19T8:1:40Z</time></trkpt>
<trkpt lat="46.79240227" lon="7.00221777"><ele></ele><time>2014-6-19T8:1:43Z</time></trkpt>
<trkpt lat="46.79246664" lon="7.00234652"><ele></ele><time>2014-6-19T8:1:46Z</time></trkpt>
<trkpt lat="46.79255247" lon="7.00251818"><ele></ele><time>2014-6-19T8:1:49Z</time></trkpt>
<trkpt lat="46.79261684" lon="7.00266838"><ele></ele><time>2014-6-19T8:1:52Z</time></trkpt>
<trkpt lat="46.79272413" lon="7.00290442"><ele></ele><time>2014-6-19T8:1:55Z</time></trkpt>
<trkpt lat="46.79291725" lon="7.00309753"><ele></ele><time>2014-6-19T8:1:58Z</time></trkpt>
<trkpt lat="46.79304600" lon="7.00316191"><ele></ele><time>2014-6-19T8:2:1Z</time></trkpt>
<trkpt lat="46.79308891" lon="7.00314045"><ele></ele><time>2014-6-19T8:2:4Z</time></trkpt>
<trkpt lat="46.79319620" lon="7.00294733"><ele></ele><time>2014-6-19T8:2:7Z</time></trkpt>
<trkpt lat="46.79317474" lon="7.00262547"><ele></ele><time>2014-6-19T8:2:10Z</time></trkpt>
<trkpt lat="46.79317474" lon="7.00232506"><ele></ele><time>2014-6-19T8:2:13Z</time></trkpt>
<trkpt lat="46.79326057" lon="7.00189590"><ele></ele><time>2014-6-19T8:2:16Z</time></trkpt>
<trkpt lat="46.79336786" lon="7.00161695"><ele></ele><time>2014-6-19T8:2:19Z</time></trkpt>
<trkpt lat="46.79345369" lon="7.00150967"><ele></ele><time>2014-6-19T8:2:22Z</time></trkpt>
<trkpt lat="46.79373264" lon="7.00142384"><ele></ele><time>2014-6-19T8:2:25Z</time></trkpt>
<trkpt lat="46.79383993" lon="7.00123072"><ele></ele><time>2014-6-19T8:2:28Z</time></trkpt>
<trkpt lat="46.79388285" lon="7.00090885"><ele></ele><time>2014-6-19T8:2:31Z</time></trkpt>
<trkpt lat="46.79392576" lon="7.00075865"><ele></ele><time>2014-6-19T8:2:34Z</time></trkpt>
<trkpt lat="46.79401159" lon="7.00035095"><ele></ele><time>2014-6-19T8:2:37Z</time></trkpt>
<trkpt lat="46.79396868" lon="6.99992180"><ele></ele><time>2014-6-19T8:2:40Z</time></trkpt>
<trkpt lat="46.79394722" lon="6.99987888"><ele></ele><time>2014-6-19T8:2:43Z</time></trkpt>
<trkpt lat="46.79371119" lon="6.99942827"><ele></ele><time>2014-6-19T8:2:46Z</time></trkpt>
<trkpt lat="46.79343224" lon="6.99902058"><ele></ele><time>2014-6-19T8:2:49Z</time></trkpt>
<trkpt lat="46.79328203" lon="6.99884892"><ele></ele><time>2014-6-19T8:2:52Z</time></trkpt>
<trkpt lat="46.79317474" lon="6.99874163"><ele></ele><time>2014-6-19T8:2:55Z</time></trkpt>
<trkpt lat="46.79289579" lon="6.99820518"><ele></ele><time>2014-6-19T8:2:58Z</time></trkpt>
<trkpt lat="46.79244518" lon="6.99717522"><ele></ele><time>2014-6-19T8:3:1Z</time></trkpt>
<trkpt lat="46.79203749" lon="6.99593067"><ele></ele><time>2014-6-19T8:3:4Z</time></trkpt>
<trkpt lat="46.79180145" lon="6.99526548"><ele></ele><time>2014-6-19T8:3:7Z</time></trkpt>
<trkpt lat="46.79173708" lon="6.99502945"><ele></ele><time>2014-6-19T8:3:10Z</time></trkpt>
<trkpt lat="46.79154396" lon="6.99445009"><ele></ele><time>2014-6-19T8:3:13Z</time></trkpt>
<trkpt lat="46.79132938" lon="6.99363470"><ele></ele><time>2014-6-19T8:3:16Z</time></trkpt>
<trkpt lat="46.79111481" lon="6.99281931"><ele></ele><time>2014-6-19T8:3:19Z</time></trkpt>
<trkpt lat="46.79085732" lon="6.99163914"><ele></ele><time>2014-6-19T8:3:22Z</time></trkpt>
<trkpt lat="46.79077148" lon="6.99123144"><ele></ele><time>2014-6-19T8:3:25Z</time></trkpt>
<trkpt lat="46.79034233" lon="6.99026585"><ele></ele><time>2014-6-19T8:3:28Z</time></trkpt>
<trkpt lat="46.78980589" lon="6.98921442"><ele></ele><time>2014-6-19T8:3:31Z</time></trkpt>
<trkpt lat="46.78950548" lon="6.98846340"><ele></ele><time>2014-6-19T8:3:34Z</time></trkpt>
<trkpt lat="46.78941965" lon="6.98827028"><ele></ele><time>2014-6-19T8:3:37Z</time></trkpt>
<trkpt lat="46.78911924" lon="6.98769093"><ele></ele><time>2014-6-19T8:3:40Z</time></trkpt>
<trkpt lat="46.78856134" lon="6.98698282"><ele></ele><time>2014-6-19T8:3:43Z</time></trkpt>
<trkpt lat="46.78826094" lon="6.98663950"><ele></ele><time>2014-6-19T8:3:46Z</time></trkpt>
<trkpt lat="46.78802490" lon="6.98653221"><ele></ele><time>2014-6-19T8:3:49Z</time></trkpt>
<trkpt lat="46.78796053" lon="6.98629618"><ele></ele><time>2014-6-19T8:3:52Z</time></trkpt>
<trkpt lat="46.78796053" lon="6.98623180"><ele></ele><time>2014-6-19T8:3:55Z</time></trkpt>
<trkpt lat="46.78821802" lon="6.98543787"><ele></ele><time>2014-6-19T8:3:58Z</time></trkpt>
<trkpt lat="46.78841114" lon="6.98483706"><ele></ele><time>2014-6-19T8:4:1Z</time></trkpt>
<trkpt lat="46.78849697" lon="6.98430061"><ele></ele><time>2014-6-19T8:4:4Z</time></trkpt>
<trkpt lat="46.78853989" lon="6.98419333"><ele></ele><time>2014-6-19T8:4:7Z</time></trkpt>
<trkpt lat="46.78877592" lon="6.98363543"><ele></ele><time>2014-6-19T8:4:10Z</time></trkpt>
<trkpt lat="46.78918362" lon="6.98320627"><ele></ele><time>2014-6-19T8:4:13Z</time></trkpt>
<trkpt lat="46.78959131" lon="6.98230505"><ele></ele><time>2014-6-19T8:4:16Z</time></trkpt>
<trkpt lat="46.78997755" lon="6.98140383"><ele></ele><time>2014-6-19T8:4:19Z</time></trkpt>
<trkpt lat="46.79004192" lon="6.98127508"><ele></ele><time>2014-6-19T8:4:22Z</time></trkpt>
<trkpt lat="46.79025650" lon="6.98108196"><ele></ele><time>2014-6-19T8:4:25Z</time></trkpt>
<trkpt lat="46.79081440" lon="6.98082447"><ele></ele><time>2014-6-19T8:4:28Z</time></trkpt>
<trkpt lat="46.79085732" lon="6.98080301"><ele></ele><time>2014-6-19T8:4:31Z</time></trkpt>
<trkpt lat="46.79083586" lon="6.98056698"><ele></ele><time>2014-6-19T8:4:34Z</time></trkpt>
<trkpt lat="46.79077148" lon="6.98045969"><ele></ele><time>2014-6-19T8:4:37Z</time></trkpt>
<trkpt lat="46.79034233" lon="6.97977304"><ele></ele><time>2014-6-19T8:4:40Z</time></trkpt>
<trkpt lat="46.78999901" lon="6.97923660"><ele></ele><time>2014-6-19T8:4:43Z</time></trkpt>
<trkpt lat="46.78993464" lon="6.97912931"><ele></ele><time>2014-6-19T8:4:46Z</time></trkpt>
<trkpt lat="46.78982735" lon="6.97891474"><ele></ele><time>2014-6-19T8:4:49Z</time></trkpt>
<trkpt lat="46.78972006" lon="6.97867870"><ele></ele><time>2014-6-19T8:4:52Z</time></trkpt>
<trkpt lat="46.78963423" lon="6.97857141"><ele></ele><time>2014-6-19T8:4:55Z</time></trkpt>
<trkpt lat="46.78948402" lon="6.97839975"><ele></ele><time>2014-6-19T8:4:58Z</time></trkpt>
<trkpt lat="46.78941965" lon="6.97829247"><ele></ele><time>2014-6-19T8:5:1Z</time></trkpt>
<trkpt lat="46.78931236" lon="6.97809935"><ele></ele><time>2014-6-19T8:5:4Z</time></trkpt>
<trkpt lat="46.78907633" lon="6.97771311"><ele></ele><time>2014-6-19T8:5:7Z</time></trkpt>
<trkpt lat="46.78888321" lon="6.97745562"><ele></ele><time>2014-6-19T8:5:10Z</time></trkpt>
<trkpt lat="46.78866863" lon="6.97706938"><ele></ele><time>2014-6-19T8:5:13Z</time></trkpt>
<trkpt lat="46.78834677" lon="6.97657585"><ele></ele><time>2014-6-19T8:5:16Z</time></trkpt>
<trkpt lat="46.78832531" lon="6.97653294"><ele></ele><time>2014-6-19T8:5:19Z</time></trkpt>
<trkpt lat="46.78819656" lon="6.97627544"><ele></ele><time>2014-6-19T8:5:22Z</time></trkpt>
<trkpt lat="46.78808928" lon="6.97606087"><ele></ele><time>2014-6-19T8:5:25Z</time></trkpt>
<trkpt lat="46.78821802" lon="6.97588921"><ele></ele><time>2014-6-19T8:5:28Z</time></trkpt>
<trkpt lat="46.78826094" lon="6.97586775"><ele></ele><time>2014-6-19T8:5:31Z</time></trkpt>
<trkpt lat="46.78843260" lon="6.97578192"><ele></ele><time>2014-6-19T8:5:34Z</time></trkpt>
<trkpt lat="46.78853989" lon="6.97567463"><ele></ele><time>2014-6-19T8:5:37Z</time></trkpt>
<trkpt lat="46.78879738" lon="6.97550297"><ele></ele><time>2014-6-19T8:5:40Z</time></trkpt>
<trkpt lat="46.78892612" lon="6.97558880"><ele></ele><time>2014-6-19T8:5:43Z</time></trkpt>
<trkpt lat="46.78916216" lon="6.97580338"><ele></ele><time>2014-6-19T8:5:46Z</time></trkpt>
<trkpt lat="46.78935528" lon="6.97597504"><ele></ele><time>2014-6-19T8:5:49Z</time></trkpt>
<trkpt lat="46.78967714" lon="6.97631836"><ele></ele><time>2014-6-19T8:5:52Z</time></trkpt>
<trkpt lat="46.78993464" lon="6.97655439"><ele></ele><time>2014-6-19T8:5:55Z</time></trkpt>
<trkpt lat="46.79017067" lon="6.97676897"><ele></ele><time>2014-6-19T8:5:58Z</time></trkpt>
<trkpt lat="46.79025650" lon="6.97685480"><ele></ele><time>2014-6-19T8:6:1Z</time></trkpt>
<trkpt lat="46.79029942" lon="6.97696209"><ele></ele><time>2014-6-19T8:6:4Z</time></trkpt>
<trkpt lat="46.79042816" lon="6.97721958"><ele></ele><time>2014-6-19T8:6:7Z</time></trkpt>
<trkpt lat="46.79049253" lon="6.97741270"><ele></ele><time>2014-6-19T8:6:10Z</time></trkpt>
<trkpt lat="46.79051399" lon="6.97758436"><ele></ele><time>2014-6-19T8:6:13Z</time></trkpt>
<trkpt lat="46.79059982" lon="6.97797060"><ele></ele><time>2014-6-19T8:6:16Z</time></trkpt>
<trkpt lat="46.79062128" lon="6.97803497"><ele></ele><time>2014-6-19T8:6:19Z</time></trkpt>
<trkpt lat="46.79070711" lon="6.97818518"><ele></ele><time>2014-6-19T8:6:22Z</time></trkpt>
<trkpt lat="46.79079294" lon="6.97833538"><ele></ele><time>2014-6-19T8:6:25Z</time></trkpt>
<trkpt lat="46.79083586" lon="6.97846413"><ele></ele><time>2014-6-19T8:6:28Z</time></trkpt>
<trkpt lat="46.79092169" lon="6.97874308"><ele></ele><time>2014-6-19T8:6:31Z</time></trkpt>
<trkpt lat="46.79102898" lon="6.97906494"><ele></ele><time>2014-6-19T8:6:34Z</time></trkpt>
<trkpt lat="46.79122210" lon="6.97953701"><ele></ele><time>2014-6-19T8:6:37Z</time></trkpt>
<trkpt lat="46.79150105" lon="6.97992325"><ele></ele><time>2014-6-19T8:6:40Z</time></trkpt>
<trkpt lat="46.79154396" lon="6.97998762"><ele></ele><time>2014-6-19T8:6:43Z</time></trkpt>
<trkpt lat="46.79158688" lon="6.98005199"><ele></ele><time>2014-6-19T8:6:46Z</time></trkpt>
<trkpt lat="46.79162979" lon="6.98033094"><ele></ele><time>2014-6-19T8:6:49Z</time></trkpt>
<trkpt lat="46.79180145" lon="6.98037386"><ele></ele><time>2014-6-19T8:6:52Z</time></trkpt>
<trkpt lat="46.79182291" lon="6.98035240"><ele></ele><time>2014-6-19T8:6:55Z</time></trkpt>
<trkpt lat="46.79186583" lon="6.98030949"><ele></ele><time>2014-6-19T8:6:58Z</time></trkpt>
<trkpt lat="46.79188728" lon="6.98007345"><ele></ele><time>2014-6-19T8:7:1Z</time></trkpt>
<trkpt lat="46.79186583" lon="6.98000908"><ele></ele><time>2014-6-19T8:7:4Z</time></trkpt>
<trkpt lat="46.79180145" lon="6.97955847"><ele></ele><time>2014-6-19T8:7:7Z</time></trkpt>
<trkpt lat="46.79177999" lon="6.97938681"><ele></ele><time>2014-6-19T8:7:10Z</time></trkpt>
<trkpt lat="46.79171562" lon="6.97919369"><ele></ele><time>2014-6-19T8:7:13Z</time></trkpt>
<trkpt lat="46.79165125" lon="6.97887182"><ele></ele><time>2014-6-19T8:7:16Z</time></trkpt>
<trkpt lat="46.79162979" lon="6.97865725"><ele></ele><time>2014-6-19T8:7:19Z</time></trkpt>
<trkpt lat="46.79160833" lon="6.97801352"><ele></ele><time>2014-6-19T8:7:22Z</time></trkpt>
<trkpt lat="46.79167271" lon="6.97767019"><ele></ele><time>2014-6-19T8:7:25Z</time></trkpt>
<trkpt lat="46.79169416" lon="6.97758436"><ele></ele><time>2014-6-19T8:7:28Z</time></trkpt>
<trkpt lat="46.79167271" lon="6.97730541"><ele></ele><time>2014-6-19T8:7:31Z</time></trkpt>
<trkpt lat="46.79169416" lon="6.97709084"><ele></ele><time>2014-6-19T8:7:34Z</time></trkpt>
<trkpt lat="46.79169416" lon="6.97702646"><ele></ele><time>2014-6-19T8:7:37Z</time></trkpt>
<trkpt lat="46.79165125" lon="6.97668314"><ele></ele><time>2014-6-19T8:7:40Z</time></trkpt>
<trkpt lat="46.79175854" lon="6.97649002"><ele></ele><time>2014-6-19T8:7:43Z</time></trkpt>
<trkpt lat="46.79180145" lon="6.97646856"><ele></ele><time>2014-6-19T8:7:46Z</time></trkpt>
<trkpt lat="46.79199457" lon="6.97633982"><ele></ele><time>2014-6-19T8:7:49Z</time></trkpt>
<trkpt lat="46.79212332" lon="6.97636127"><ele></ele><time>2014-6-19T8:7:52Z</time></trkpt>
<trkpt lat="46.79229498" lon="6.97644711"><ele></ele><time>2014-6-19T8:7:55Z</time></trkpt>
<trkpt lat="46.79246664" lon="6.97653294"><ele></ele><time>2014-6-19T8:7:58Z</time></trkpt>
<trkpt lat="46.79248810" lon="6.97655439"><ele></ele><time>2014-6-19T8:8:1Z</time></trkpt>
<trkpt lat="46.79257393" lon="6.97659731"><ele></ele><time>2014-6-19T8:8:4Z</time></trkpt>
<trkpt lat="46.79278851" lon="6.97672606"><ele></ele><time>2014-6-19T8:8:7Z</time></trkpt>
<trkpt lat="46.79293871" lon="6.97681189"><ele></ele><time>2014-6-19T8:8:10Z</time></trkpt>
<trkpt lat="46.79308891" lon="6.97683334"><ele></ele><time>2014-6-19T8:8:13Z</time></trkpt>
<trkpt lat="46.79311037" lon="6.97681189"><ele></ele><time>2014-6-19T8:8:16Z</time></trkpt>
<trkpt lat="46.79304600" lon="6.97679043"><ele></ele><time>2014-6-19T8:8:19Z</time></trkpt>
<trkpt lat="46.79298162" lon="6.97681189"><ele></ele><time>2014-6-19T8:8:22Z</time></trkpt>
<trkpt lat="46.79263830" lon="6.97666168"><ele></ele><time>2014-6-19T8:8:25Z</time></trkpt>
<trkpt lat="46.79225206" lon="6.97644711"><ele></ele><time>2014-6-19T8:8:28Z</time></trkpt>
<trkpt lat="46.79205894" lon="6.97636127"><ele></ele><time>2014-6-19T8:8:31Z</time></trkpt>
<trkpt lat="46.79167271" lon="6.97646856"><ele></ele><time>2014-6-19T8:8:34Z</time></trkpt>
<trkpt lat="46.79158688" lon="6.97655439"><ele></ele><time>2014-6-19T8:8:37Z</time></trkpt>
<trkpt lat="46.79158688" lon="6.97670460"><ele></ele><time>2014-6-19T8:8:40Z</time></trkpt>
<trkpt lat="46.79165125" lon="6.97679043"><ele></ele><time>2014-6-19T8:8:43Z</time></trkpt>
<trkpt lat="46.79167271" lon="6.97683334"><ele></ele><time>2014-6-19T8:8:46Z</time></trkpt>
<trkpt lat="46.79184437" lon="6.97713375"><ele></ele><time>2014-6-19T8:8:49Z</time></trkpt>
<trkpt lat="46.79195166" lon="6.97751999"><ele></ele><time>2014-6-19T8:8:52Z</time></trkpt>
<trkpt lat="46.79208040" lon="6.97790623"><ele></ele><time>2014-6-19T8:8:55Z</time></trkpt>
<trkpt lat="46.79238081" lon="6.97846413"><ele></ele><time>2014-6-19T8:8:58Z</time></trkpt>
<trkpt lat="46.79268122" lon="6.97912931"><ele></ele><time>2014-6-19T8:9:1Z</time></trkpt>
<trkpt lat="46.79283142" lon="6.97942972"><ele></ele><time>2014-6-19T8:9:4Z</time></trkpt>
<trkpt lat="46.79300308" lon="6.97968721"><ele></ele><time>2014-6-19T8:9:7Z</time></trkpt>
<trkpt lat="46.79323912" lon="6.98015928"><ele></ele><time>2014-6-19T8:9:10Z</time></trkpt>
<trkpt lat="46.79330349" lon="6.98045969"><ele></ele><time>2014-6-19T8:9:13Z</time></trkpt>
<trkpt lat="46.79343224" lon="6.98082447"><ele></ele><time>2014-6-19T8:9:16Z</time></trkpt>
<trkpt lat="46.79358244" lon="6.98106050"><ele></ele><time>2014-6-19T8:9:19Z</time></trkpt>
<trkpt lat="46.79360390" lon="6.98114634"><ele></ele><time>2014-6-19T8:9:22Z</time></trkpt>
<trkpt lat="46.79383993" lon="6.98157549"><ele></ele><time>2014-6-19T8:9:25Z</time></trkpt>
<trkpt lat="46.79394722" lon="6.98194027"><ele></ele><time>2014-6-19T8:9:28Z</time></trkpt>
<trkpt lat="46.79407597" lon="6.98221922"><ele></ele><time>2014-6-19T8:9:31Z</time></trkpt>
<trkpt lat="46.79431200" lon="6.98254108"><ele></ele><time>2014-6-19T8:9:34Z</time></trkpt>
<trkpt lat="46.79439783" lon="6.98264837"><ele></ele><time>2014-6-19T8:9:37Z</time></trkpt>
<trkpt lat="46.79452658" lon="6.98282003"><ele></ele><time>2014-6-19T8:9:40Z</time></trkpt>
<trkpt lat="46.79478407" lon="6.98329210"><ele></ele><time>2014-6-19T8:9:43Z</time></trkpt>
<trkpt lat="46.79480553" lon="6.98339939"><ele></ele><time>2014-6-19T8:9:46Z</time></trkpt>
<trkpt lat="46.79482698" lon="6.98352814"><ele></ele><time>2014-6-19T8:9:49Z</time></trkpt>
<trkpt lat="46.79495573" lon="6.98393583"><ele></ele><time>2014-6-19T8:9:52Z</time></trkpt>
<trkpt lat="46.79499865" lon="6.98406458"><ele></ele><time>2014-6-19T8:9:55Z</time></trkpt>
<trkpt lat="46.79508448" lon="6.98423624"><ele></ele><time>2014-6-19T8:9:58Z</time></trkpt>
<trkpt lat="46.79523468" lon="6.98451519"><ele></ele><time>2014-6-19T8:10:1Z</time></trkpt>
<trkpt lat="46.79536343" lon="6.98470831"><ele></ele><time>2014-6-19T8:10:4Z</time></trkpt>
<trkpt lat="46.79540634" lon="6.98477268"><ele></ele><time>2014-6-19T8:10:7Z</time></trkpt>
<trkpt lat="46.79551363" lon="6.98498726"><ele></ele><time>2014-6-19T8:10:10Z</time></trkpt>
<trkpt lat="46.79564238" lon="6.98518038"><ele></ele><time>2014-6-19T8:10:13Z</time></trkpt>
<trkpt lat="46.79594278" lon="6.98567390"><ele></ele><time>2014-6-19T8:10:16Z</time></trkpt>
<trkpt lat="46.79600716" lon="6.98590994"><ele></ele><time>2014-6-19T8:10:19Z</time></trkpt>
<trkpt lat="46.79607153" lon="6.98623180"><ele></ele><time>2014-6-19T8:10:22Z</time></trkpt>
<trkpt lat="46.79611444" lon="6.98642492"><ele></ele><time>2014-6-19T8:10:25Z</time></trkpt>
<trkpt lat="46.79617882" lon="6.98678970"><ele></ele><time>2014-6-19T8:10:28Z</time></trkpt>
<trkpt lat="46.79620028" lon="6.98689699"><ele></ele><time>2014-6-19T8:10:31Z</time></trkpt>
<trkpt lat="46.79630756" lon="6.98709011"><ele></ele><time>2014-6-19T8:10:34Z</time></trkpt>
<trkpt lat="46.79641485" lon="6.98724031"><ele></ele><time>2014-6-19T8:10:37Z</time></trkpt>
<trkpt lat="46.79658651" lon="6.98751926"><ele></ele><time>2014-6-19T8:10:40Z</time></trkpt>
<trkpt lat="46.79677963" lon="6.98781967"><ele></ele><time>2014-6-19T8:10:43Z</time></trkpt>
<trkpt lat="46.79686546" lon="6.98790550"><ele></ele><time>2014-6-19T8:10:46Z</time></trkpt>
<trkpt lat="46.79701567" lon="6.98805571"><ele></ele><time>2014-6-19T8:10:49Z</time></trkpt>
<trkpt lat="46.79712296" lon="6.98820591"><ele></ele><time>2014-6-19T8:10:52Z</time></trkpt>
<trkpt lat="46.79720879" lon="6.98831320"><ele></ele><time>2014-6-19T8:10:55Z</time></trkpt>
<trkpt lat="46.79723024" lon="6.98831320"><ele></ele><time>2014-6-19T8:10:58Z</time></trkpt>
<trkpt lat="46.79731607" lon="6.98844194"><ele></ele><time>2014-6-19T8:11:1Z</time></trkpt>
<trkpt lat="46.79742336" lon="6.98852777"><ele></ele><time>2014-6-19T8:11:4Z</time></trkpt>
<trkpt lat="46.79768085" lon="6.98857069"><ele></ele><time>2014-6-19T8:11:7Z</time></trkpt>
<trkpt lat="46.79774523" lon="6.98859215"><ele></ele><time>2014-6-19T8:11:10Z</time></trkpt>
<trkpt lat="46.79819584" lon="6.98865652"><ele></ele><time>2014-6-19T8:11:13Z</time></trkpt>
<trkpt lat="46.79868937" lon="6.98878527"><ele></ele><time>2014-6-19T8:11:16Z</time></trkpt>
<trkpt lat="46.79903269" lon="6.98904276"><ele></ele><time>2014-6-19T8:11:19Z</time></trkpt>
<trkpt lat="46.79954767" lon="6.98957920"><ele></ele><time>2014-6-19T8:11:22Z</time></trkpt>
<trkpt lat="46.80008411" lon="6.98972940"><ele></ele><time>2014-6-19T8:11:25Z</time></trkpt>
<trkpt lat="46.80019140" lon="6.98972940"><ele></ele><time>2014-6-19T8:11:28Z</time></trkpt>
<trkpt lat="46.80085659" lon="6.98960066"><ele></ele><time>2014-6-19T8:11:31Z</time></trkpt>
<trkpt lat="46.80098534" lon="6.98990107"><ele></ele><time>2014-6-19T8:11:34Z</time></trkpt>
<trkpt lat="46.80098534" lon="6.98998690"><ele></ele><time>2014-6-19T8:11:37Z</time></trkpt>
<trkpt lat="46.80098534" lon="6.99007273"><ele></ele><time>2014-6-19T8:11:40Z</time></trkpt>
<trkpt lat="46.80083513" lon="6.99095249"><ele></ele><time>2014-6-19T8:11:43Z</time></trkpt>
<trkpt lat="46.80066347" lon="6.99142456"><ele></ele><time>2014-6-19T8:11:46Z</time></trkpt>
<trkpt lat="46.80055618" lon="6.99178934"><ele></ele><time>2014-6-19T8:11:49Z</time></trkpt>
<trkpt lat="46.80034161" lon="6.99213266"><ele></ele><time>2014-6-19T8:11:52Z</time></trkpt>
<trkpt lat="46.80019140" lon="6.99239016"><ele></ele><time>2014-6-19T8:11:55Z</time></trkpt>
<trkpt lat="46.80016994" lon="6.99247599"><ele></ele><time>2014-6-19T8:11:58Z</time></trkpt>
<trkpt lat="46.80014849" lon="6.99262619"><ele></ele><time>2014-6-19T8:12:1Z</time></trkpt>
<trkpt lat="46.80010557" lon="6.99271202"><ele></ele><time>2014-6-19T8:12:4Z</time></trkpt>
<trkpt lat="46.80006266" lon="6.99284077"><ele></ele><time>2014-6-19T8:12:7Z</time></trkpt>
<trkpt lat="46.80004120" lon="6.99288368"><ele></ele><time>2014-6-19T8:12:10Z</time></trkpt>
<trkpt lat="46.79997683" lon="6.99303389"><ele></ele><time>2014-6-19T8:12:13Z</time></trkpt>
<trkpt lat="46.79995537" lon="6.99309826"><ele></ele><time>2014-6-19T8:12:16Z</time></trkpt>
<trkpt lat="46.79991245" lon="6.99318409"><ele></ele><time>2014-6-19T8:12:19Z</time></trkpt>
<trkpt lat="46.79986954" lon="6.99333429"><ele></ele><time>2014-6-19T8:12:22Z</time></trkpt>
<trkpt lat="46.79982662" lon="6.99339867"><ele></ele><time>2014-6-19T8:12:25Z</time></trkpt>
<trkpt lat="46.79980516" lon="6.99344158"><ele></ele><time>2014-6-19T8:12:28Z</time></trkpt>
<trkpt lat="46.79969788" lon="6.99354887"><ele></ele><time>2014-6-19T8:12:31Z</time></trkpt>
<trkpt lat="46.79965496" lon="6.99359179"><ele></ele><time>2014-6-19T8:12:34Z</time></trkpt>
<trkpt lat="46.79959059" lon="6.99369907"><ele></ele><time>2014-6-19T8:12:37Z</time></trkpt>
<trkpt lat="46.79967642" lon="6.99378490"><ele></ele><time>2014-6-19T8:12:40Z</time></trkpt>
<trkpt lat="46.79971933" lon="6.99393511"><ele></ele><time>2014-6-19T8:12:43Z</time></trkpt>
<trkpt lat="46.79976225" lon="6.99408531"><ele></ele><time>2014-6-19T8:12:46Z</time></trkpt>
<trkpt lat="46.79978371" lon="6.99412823"><ele></ele><time>2014-6-19T8:12:49Z</time></trkpt>
<trkpt lat="46.79980516" lon="6.99436426"><ele></ele><time>2014-6-19T8:12:52Z</time></trkpt>
<trkpt lat="46.79976225" lon="6.99483633"><ele></ele><time>2014-6-19T8:12:55Z</time></trkpt>
<trkpt lat="46.79971933" lon="6.99524403"><ele></ele><time>2014-6-19T8:12:58Z</time></trkpt>
<trkpt lat="46.79956913" lon="6.99565172"><ele></ele><time>2014-6-19T8:13:1Z</time></trkpt>
<trkpt lat="46.79903269" lon="6.99663877"><ele></ele><time>2014-6-19T8:13:4Z</time></trkpt>
<trkpt lat="46.79843187" lon="6.99747562"><ele></ele><time>2014-6-19T8:13:7Z</time></trkpt>
<trkpt lat="46.79834604" lon="6.99775457"><ele></ele><time>2014-6-19T8:13:10Z</time></trkpt>
<trkpt lat="46.79815292" lon="6.99809790"><ele></ele><time>2014-6-19T8:13:13Z</time></trkpt>
<trkpt lat="46.79806709" lon="6.99846268"><ele></ele><time>2014-6-19T8:13:16Z</time></trkpt>
<trkpt lat="46.79802418" lon="6.99856997"><ele></ele><time>2014-6-19T8:13:19Z</time></trkpt>
<trkpt lat="46.79798126" lon="6.99869871"><ele></ele><time>2014-6-19T8:13:22Z</time></trkpt>
<trkpt lat="46.79789543" lon="6.99893475"><ele></ele><time>2014-6-19T8:13:25Z</time></trkpt>
<trkpt lat="46.79787397" lon="6.99897766"><ele></ele><time>2014-6-19T8:13:28Z</time></trkpt>
<trkpt lat="46.79774523" lon="6.99912786"><ele></ele><time>2014-6-19T8:13:31Z</time></trkpt>
<trkpt lat="46.79742336" lon="6.99921370"><ele></ele><time>2014-6-19T8:13:34Z</time></trkpt>
<trkpt lat="46.79727316" lon="6.99929953"><ele></ele><time>2014-6-19T8:13:37Z</time></trkpt>
<trkpt lat="46.79712296" lon="6.99949265"><ele></ele><time>2014-6-19T8:13:40Z</time></trkpt>
<trkpt lat="46.79705858" lon="6.99955702"><ele></ele><time>2014-6-19T8:13:43Z</time></trkpt>
<trkpt lat="46.79692984" lon="6.99964285"><ele></ele><time>2014-6-19T8:13:46Z</time></trkpt>
<trkpt lat="46.79675817" lon="6.99966431"><ele></ele><time>2014-6-19T8:13:49Z</time></trkpt>
<trkpt lat="46.79665089" lon="6.99966431"><ele></ele><time>2014-6-19T8:13:52Z</time></trkpt>
<trkpt lat="46.79650068" lon="6.99970722"><ele></ele><time>2014-6-19T8:13:55Z</time></trkpt>
<trkpt lat="46.79645777" lon="6.99975014"><ele></ele><time>2014-6-19T8:13:58Z</time></trkpt>
<trkpt lat="46.79635048" lon="6.99981451"><ele></ele><time>2014-6-19T8:14:1Z</time></trkpt>
<trkpt lat="46.79624319" lon="6.99985743"><ele></ele><time>2014-6-19T8:14:4Z</time></trkpt>
<trkpt lat="46.79617882" lon="6.99985743"><ele></ele><time>2014-6-19T8:14:7Z</time></trkpt>
<trkpt lat="46.79613590" lon="6.99994326"><ele></ele><time>2014-6-19T8:14:10Z</time></trkpt>
<trkpt lat="46.79611444" lon="7.00007200"><ele></ele><time>2014-6-19T8:14:13Z</time></trkpt>
<trkpt lat="46.79607153" lon="7.00026512"><ele></ele><time>2014-6-19T8:14:16Z</time></trkpt>
<trkpt lat="46.79607153" lon="7.00030804"><ele></ele><time>2014-6-19T8:14:19Z</time></trkpt>
<trkpt lat="46.79607153" lon="7.00043678"><ele></ele><time>2014-6-19T8:14:22Z</time></trkpt>
<trkpt lat="46.79607153" lon="7.00069427"><ele></ele><time>2014-6-19T8:14:25Z</time></trkpt>
<trkpt lat="46.79605007" lon="7.00075865"><ele></ele><time>2014-6-19T8:14:28Z</time></trkpt>
<trkpt lat="46.79600716" lon="7.00080156"><ele></ele><time>2014-6-19T8:14:31Z</time></trkpt>
<trkpt lat="46.79598570" lon="7.00086594"><ele></ele><time>2014-6-19T8:14:34Z</time></trkpt>
<trkpt lat="46.79596424" lon="7.00088739"><ele></ele><time>2014-6-19T8:14:37Z</time></trkpt>
<trkpt lat="46.79583549" lon="7.00103760"><ele></ele><time>2014-6-19T8:14:40Z</time></trkpt>
<trkpt lat="46.79570675" lon="7.00123072"><ele></ele><time>2014-6-19T8:14:43Z</time></trkpt>
<trkpt lat="46.79540634" lon="7.00135946"><ele></ele><time>2014-6-19T8:14:46Z</time></trkpt>
<trkpt lat="46.79529905" lon="7.00138092"><ele></ele><time>2014-6-19T8:14:49Z</time></trkpt>
<trkpt lat="46.79523468" lon="7.00159550"><ele></ele><time>2014-6-19T8:14:52Z</time></trkpt>
<trkpt lat="46.79527760" lon="7.00183153"><ele></ele><time>2014-6-19T8:14:55Z</time></trkpt>
<trkpt lat="46.79538488" lon="7.00221777"><ele></ele><time>2014-6-19T8:14:58Z</time></trkpt>
<trkpt lat="46.79547071" lon="7.00236797"><ele></ele><time>2014-6-19T8:15:1Z</time></trkpt>
<trkpt lat="46.79581404" lon="7.00301170"><ele></ele><time>2014-6-19T8:15:4Z</time></trkpt>
<trkpt lat="46.79585695" lon="7.00314045"><ele></ele><time>2014-6-19T8:15:7Z</time></trkpt>
<trkpt lat="46.79598570" lon="7.00344086"><ele></ele><time>2014-6-19T8:15:10Z</time></trkpt>
<trkpt lat="46.79607153" lon="7.00369835"><ele></ele><time>2014-6-19T8:15:13Z</time></trkpt>
<trkpt lat="46.79609299" lon="7.00376272"><ele></ele><time>2014-6-19T8:15:16Z</time></trkpt>
<trkpt lat="46.79643631" lon="7.00462103"><ele></ele><time>2014-6-19T8:15:19Z</time></trkpt>
<trkpt lat="46.79645777" lon="7.00466394"><ele></ele><time>2014-6-19T8:15:22Z</time></trkpt>
<trkpt lat="46.79654360" lon="7.00477123"><ele></ele><time>2014-6-19T8:15:25Z</time></trkpt>
<trkpt lat="46.79673672" lon="7.00487852"><ele></ele><time>2014-6-19T8:15:28Z</time></trkpt>
<trkpt lat="46.79703712" lon="7.00485706"><ele></ele><time>2014-6-19T8:15:31Z</time></trkpt>
<trkpt lat="46.79723024" lon="7.00474977"><ele></ele><time>2014-6-19T8:15:34Z</time></trkpt>
<trkpt lat="46.79744482" lon="7.00438499"><ele></ele><time>2014-6-19T8:15:37Z</time></trkpt>
<trkpt lat="46.79744482" lon="7.00417042"><ele></ele><time>2014-6-19T8:15:40Z</time></trkpt>
<trkpt lat="46.79744482" lon="7.00406313"><ele></ele><time>2014-6-19T8:15:43Z</time></trkpt>
<trkpt lat="46.79720879" lon="7.00350523"><ele></ele><time>2014-6-19T8:15:46Z</time></trkpt>
<trkpt lat="46.79714441" lon="7.00344086"><ele></ele><time>2014-6-19T8:15:49Z</time></trkpt>
<trkpt lat="46.79701567" lon="7.00331211"><ele></ele><time>2014-6-19T8:15:52Z</time></trkpt>
<trkpt lat="46.79688692" lon="7.00284004"><ele></ele><time>2014-6-19T8:15:55Z</time></trkpt>
<trkpt lat="46.79688692" lon="7.00275421"><ele></ele><time>2014-6-19T8:15:58Z</time></trkpt>
<trkpt lat="46.79690838" lon="7.00264692"><ele></ele><time>2014-6-19T8:16:1Z</time></trkpt>
<trkpt lat="46.79701567" lon="7.00236797"><ele></ele><time>2014-6-19T8:16:4Z</time></trkpt>
<trkpt lat="46.79720879" lon="7.00200319"><ele></ele><time>2014-6-19T8:16:7Z</time></trkpt>
<trkpt lat="46.79725170" lon="7.00191736"><ele></ele><time>2014-6-19T8:16:10Z</time></trkpt>
<trkpt lat="46.79731607" lon="7.00144529"><ele></ele><time>2014-6-19T8:16:13Z</time></trkpt>
<trkpt lat="46.79735899" lon="7.00095177"><ele></ele><time>2014-6-19T8:16:16Z</time></trkpt>
<trkpt lat="46.79735899" lon="7.00084448"><ele></ele><time>2014-6-19T8:16:19Z</time></trkpt>
<trkpt lat="46.79750919" lon="7.00062990"><ele></ele><time>2014-6-19T8:16:22Z</time></trkpt>
<trkpt lat="46.79774523" lon="7.00086594"><ele></ele><time>2014-6-19T8:16:25Z</time></trkpt>
<trkpt lat="46.79785252" lon="7.00118780"><ele></ele><time>2014-6-19T8:16:28Z</time></trkpt>
<trkpt lat="46.79802418" lon="7.00144529"><ele></ele><time>2014-6-19T8:16:31Z</time></trkpt>
<trkpt lat="46.79841042" lon="7.00159550"><ele></ele><time>2014-6-19T8:16:34Z</time></trkpt>
<trkpt lat="46.79849625" lon="7.00155258"><ele></ele><time>2014-6-19T8:16:37Z</time></trkpt>
<trkpt lat="46.79858208" lon="7.00153112"><ele></ele><time>2014-6-19T8:16:40Z</time></trkpt>
<trkpt lat="46.79881811" lon="7.00172424"><ele></ele><time>2014-6-19T8:16:43Z</time></trkpt>
<trkpt lat="46.79888248" lon="7.00202465"><ele></ele><time>2014-6-19T8:16:46Z</time></trkpt>
<trkpt lat="46.79901123" lon="7.00251818"><ele></ele><time>2014-6-19T8:16:49Z</time></trkpt>
<trkpt lat="46.79937601" lon="7.00339794"><ele></ele><time>2014-6-19T8:16:52Z</time></trkpt>
<trkpt lat="46.79963350" lon="7.00399876"><ele></ele><time>2014-6-19T8:16:55Z</time></trkpt>
<trkpt lat="46.79974079" lon="7.00447083"><ele></ele><time>2014-6-19T8:16:58Z</time></trkpt>
<trkpt lat="46.79991245" lon="7.00457811"><ele></ele><time>2014-6-19T8:17:1Z</time></trkpt>
<trkpt lat="46.80001974" lon="7.00464249"><ele></ele><time>2014-6-19T8:17:4Z</time></trkpt>
<trkpt lat="46.80010557" lon="7.00468540"><ele></ele><time>2014-6-19T8:17:7Z</time></trkpt>
<trkpt lat="46.80034161" lon="7.00477123"><ele></ele><time>2014-6-19T8:17:10Z</time></trkpt>
<trkpt lat="46.80070639" lon="7.00492144"><ele></ele><time>2014-6-19T8:17:13Z</time></trkpt>
<trkpt lat="46.80074930" lon="7.00494289"><ele></ele><time>2014-6-19T8:17:16Z</time></trkpt>
<trkpt lat="46.80100679" lon="7.00502872"><ele></ele><time>2014-6-19T8:17:19Z</time></trkpt>
<trkpt lat="46.80154324" lon="7.00526476"><ele></ele><time>2014-6-19T8:17:22Z</time></trkpt>
<trkpt lat="46.80173635" lon="7.00537205"><ele></ele><time>2014-6-19T8:17:25Z</time></trkpt>
<trkpt lat="46.80169344" lon="7.00552225"><ele></ele><time>2014-6-19T8:17:28Z</time></trkpt>
<trkpt lat="46.80156469" lon="7.00571537"><ele></ele><time>2014-6-19T8:17:31Z</time></trkpt>
<trkpt lat="46.80156469" lon="7.00575829"><ele></ele><time>2014-6-19T8:17:34Z</time></trkpt>
<trkpt lat="46.80152178" lon="7.00586557"><ele></ele><time>2014-6-19T8:17:37Z</time></trkpt>
<trkpt lat="46.80150032" lon="7.00592995"><ele></ele><time>2014-6-19T8:17:40Z</time></trkpt>
<trkpt lat="46.80147886" lon="7.00595140"><ele></ele><time>2014-6-19T8:17:43Z</time></trkpt>
<trkpt lat="46.80145741" lon="7.00599432"><ele></ele><time>2014-6-19T8:17:46Z</time></trkpt>
<trkpt lat="46.80141449" lon="7.00608015"><ele></ele><time>2014-6-19T8:17:49Z</time></trkpt>
<trkpt lat="46.80130720" lon="7.00625181"><ele></ele><time>2014-6-19T8:17:52Z</time></trkpt>
<trkpt lat="46.80124283" lon="7.00635910"><ele></ele><time>2014-6-19T8:17:55Z</time></trkpt>
<trkpt lat="46.80115700" lon="7.00650930"><ele></ele><time>2014-6-19T8:17:58Z</time></trkpt>
<trkpt lat="46.80111408" lon="7.00655222"><ele></ele><time>2014-6-19T8:18:1Z</time></trkpt>
<trkpt lat="46.80104971" lon="7.00663805"><ele></ele><time>2014-6-19T8:18:4Z</time></trkpt>
<trkpt lat="46.80094242" lon="7.00676680"><ele></ele><time>2014-6-19T8:18:7Z</time></trkpt>
<trkpt lat="46.80083513" lon="7.00676680"><ele></ele><time>2014-6-19T8:18:10Z</time></trkpt>
<trkpt lat="46.80068493" lon="7.00672388"><ele></ele><time>2014-6-19T8:18:13Z</time></trkpt>
<trkpt lat="46.80062056" lon="7.00672388"><ele></ele><time>2014-6-19T8:18:16Z</time></trkpt>
<trkpt lat="46.80055618" lon="7.00672388"><ele></ele><time>2014-6-19T8:18:19Z</time></trkpt>
<trkpt lat="46.80040598" lon="7.00670242"><ele></ele><time>2014-6-19T8:18:22Z</time></trkpt>
<trkpt lat="46.80032015" lon="7.00668097"><ele></ele><time>2014-6-19T8:18:25Z</time></trkpt>
<trkpt lat="46.79993391" lon="7.00655222"><ele></ele><time>2014-6-19T8:18:28Z</time></trkpt>
<trkpt lat="46.79974079" lon="7.00653076"><ele></ele><time>2014-6-19T8:18:31Z</time></trkpt>
<trkpt lat="46.79967642" lon="7.00672388"><ele></ele><time>2014-6-19T8:18:34Z</time></trkpt>
<trkpt lat="46.79963350" lon="7.00683117"><ele></ele><time>2014-6-19T8:18:37Z</time></trkpt>
<trkpt lat="46.79946184" lon="7.00708866"><ele></ele><time>2014-6-19T8:18:40Z</time></trkpt>
<trkpt lat="46.79939747" lon="7.00713158"><ele></ele><time>2014-6-19T8:18:43Z</time></trkpt>
<trkpt lat="46.79922581" lon="7.00726032"><ele></ele><time>2014-6-19T8:18:46Z</time></trkpt>
<trkpt lat="46.79898977" lon="7.00726032"><ele></ele><time>2014-6-19T8:18:49Z</time></trkpt>
<trkpt lat="46.79888248" lon="7.00719595"><ele></ele><time>2014-6-19T8:18:52Z</time></trkpt>
<trkpt lat="46.79877520" lon="7.00708866"><ele></ele><time>2014-6-19T8:18:55Z</time></trkpt>
<trkpt lat="46.79875374" lon="7.00704575"><ele></ele><time>2014-6-19T8:18:58Z</time></trkpt>
<trkpt lat="46.79873228" lon="7.00687408"><ele></ele><time>2014-6-19T8:19:1Z</time></trkpt>
<trkpt lat="46.79873228" lon="7.00683117"><ele></ele><time>2014-6-19T8:19:4Z</time></trkpt>
<trkpt lat="46.79858208" lon="7.00659513"><ele></ele><time>2014-6-19T8:19:7Z</time></trkpt>
<trkpt lat="46.79843187" lon="7.00648785"><ele></ele><time>2014-6-19T8:19:10Z</time></trkpt>
<trkpt lat="46.79830313" lon="7.00657368"><ele></ele><time>2014-6-19T8:19:13Z</time></trkpt>
<trkpt lat="46.79823875" lon="7.00659513"><ele></ele><time>2014-6-19T8:19:16Z</time></trkpt>
<trkpt lat="46.79813147" lon="7.00661659"><ele></ele><time>2014-6-19T8:19:19Z</time></trkpt>
<trkpt lat="46.79802418" lon="7.00657368"><ele></ele><time>2014-6-19T8:19:22Z</time></trkpt>
<trkpt lat="46.79791689" lon="7.00657368"><ele></ele><time>2014-6-19T8:19:25Z</time></trkpt>
<trkpt lat="46.79785252" lon="7.00653076"><ele></ele><time>2014-6-19T8:19:28Z</time></trkpt>
<trkpt lat="46.79783106" lon="7.00653076"><ele></ele><time>2014-6-19T8:19:31Z</time></trkpt>
<trkpt lat="46.79774523" lon="7.00650930"><ele></ele><time>2014-6-19T8:19:34Z</time></trkpt>
<trkpt lat="46.79772377" lon="7.00650930"><ele></ele><time>2014-6-19T8:19:37Z</time></trkpt>
<trkpt lat="46.79770231" lon="7.00648785"><ele></ele><time>2014-6-19T8:19:40Z</time></trkpt>
<trkpt lat="46.79765940" lon="7.00646639"><ele></ele><time>2014-6-19T8:19:43Z</time></trkpt>
<trkpt lat="46.79761648" lon="7.00646639"><ele></ele><time>2014-6-19T8:19:46Z</time></trkpt>
<trkpt lat="46.79755211" lon="7.00646639"><ele></ele><time>2014-6-19T8:19:49Z</time></trkpt>
<trkpt lat="46.79753065" lon="7.00646639"><ele></ele><time>2014-6-19T8:19:52Z</time></trkpt>
<trkpt lat="46.79750919" lon="7.00644493"><ele></ele><time>2014-6-19T8:19:55Z</time></trkpt>
<trkpt lat="46.79738045" lon="7.00642347"><ele></ele><time>2014-6-19T8:19:58Z</time></trkpt>
<trkpt lat="46.79731607" lon="7.00638056"><ele></ele><time>2014-6-19T8:20:1Z</time></trkpt>
<trkpt lat="46.79727316" lon="7.00635910"><ele></ele><time>2014-6-19T8:20:4Z</time></trkpt>
<trkpt lat="46.79720879" lon="7.00644493"><ele></ele><time>2014-6-19T8:20:7Z</time></trkpt>
<trkpt lat="46.79725170" lon="7.00659513"><ele></ele><time>2014-6-19T8:20:10Z</time></trkpt>
<trkpt lat="46.79729462" lon="7.00687408"><ele></ele><time>2014-6-19T8:20:13Z</time></trkpt>
<trkpt lat="46.79723024" lon="7.00695992"><ele></ele><time>2014-6-19T8:20:16Z</time></trkpt>
<trkpt lat="46.79708004" lon="7.00693846"><ele></ele><time>2014-6-19T8:20:19Z</time></trkpt>
<trkpt lat="46.79677963" lon="7.00691700"><ele></ele><time>2014-6-19T8:20:22Z</time></trkpt>
<trkpt lat="46.79669380" lon="7.00687408"><ele></ele><time>2014-6-19T8:20:25Z</time></trkpt>
<trkpt lat="46.79669380" lon="7.00668097"><ele></ele><time>2014-6-19T8:20:28Z</time></trkpt>
<trkpt lat="46.79669380" lon="7.00627327"><ele></ele><time>2014-6-19T8:20:31Z</time></trkpt>
<trkpt lat="46.79654360" lon="7.00623035"><ele></ele><time>2014-6-19T8:20:34Z</time></trkpt>
<trkpt lat="46.79628611" lon="7.00620890"><ele></ele><time>2014-6-19T8:20:37Z</time></trkpt>
<trkpt lat="46.79620028" lon="7.00620890"><ele></ele><time>2014-6-19T8:20:40Z</time></trkpt>
<trkpt lat="46.79587841" lon="7.00623035"><ele></ele><time>2014-6-19T8:20:43Z</time></trkpt>
<trkpt lat="46.79562092" lon="7.00616598"><ele></ele><time>2014-6-19T8:20:46Z</time></trkpt>
<trkpt lat="46.79551363" lon="7.00614452"><ele></ele><time>2014-6-19T8:20:49Z</time></trkpt>
<trkpt lat="46.79534197" lon="7.00631618"><ele></ele><time>2014-6-19T8:20:52Z</time></trkpt>
<trkpt lat="46.79534197" lon="7.00635910"><ele></ele><time>2014-6-19T8:20:55Z</time></trkpt>
<trkpt lat="46.79536343" lon="7.00642347"><ele></ele><time>2014-6-19T8:20:58Z</time></trkpt>
<trkpt lat="46.79538488" lon="7.00676680"><ele></ele><time>2014-6-19T8:21:1Z</time></trkpt>
<trkpt lat="46.79540634" lon="7.00753927"><ele></ele><time>2014-6-19T8:21:4Z</time></trkpt>
<trkpt lat="46.79542780" lon="7.00781822"><ele></ele><time>2014-6-19T8:21:7Z</time></trkpt>
<trkpt lat="46.79557800" lon="7.00839758"><ele></ele><time>2014-6-19T8:21:10Z</time></trkpt>
<trkpt lat="46.79564238" lon="7.00865507"><ele></ele><time>2014-6-19T8:21:13Z</time></trkpt>
<trkpt lat="46.79594278" lon="7.00989962"><ele></ele><time>2014-6-19T8:21:16Z</time></trkpt>
<trkpt lat="46.79600716" lon="7.01011419"><ele></ele><time>2014-6-19T8:21:19Z</time></trkpt>
<trkpt lat="46.79637194" lon="7.01052189"><ele></ele><time>2014-6-19T8:21:22Z</time></trkpt>
<trkpt lat="46.79643631" lon="7.01056480"><ele></ele><time>2014-6-19T8:21:25Z</time></trkpt>
<trkpt lat="46.79716587" lon="7.01099396"><ele></ele><time>2014-6-19T8:21:28Z</time></trkpt>
<trkpt lat="46.79742336" lon="7.01114416"><ele></ele><time>2014-6-19T8:21:31Z</time></trkpt>
<trkpt lat="46.79780960" lon="7.01107979"><ele></ele><time>2014-6-19T8:21:34Z</time></trkpt>
<trkpt lat="46.79793835" lon="7.01105833"><ele></ele><time>2014-6-19T8:21:37Z</time></trkpt>
<trkpt lat="46.79847479" lon="7.01062918"><ele></ele><time>2014-6-19T8:21:40Z</time></trkpt>
<trkpt lat="46.79864645" lon="7.01039314"><ele></ele><time>2014-6-19T8:21:43Z</time></trkpt>
<trkpt lat="46.79877520" lon="7.01007128"><ele></ele><time>2014-6-19T8:21:46Z</time></trkpt>
<trkpt lat="46.79879665" lon="7.01000690"><ele></ele><time>2014-6-19T8:21:49Z</time></trkpt>
<trkpt lat="46.79894686" lon="7.01002836"><ele></ele><time>2014-6-19T8:21:52Z</time></trkpt>
<trkpt lat="46.79898977" lon="7.01022148"><ele></ele><time>2014-6-19T8:21:55Z</time></trkpt>
<trkpt lat="46.79901123" lon="7.01030731"><ele></ele><time>2014-6-19T8:21:58Z</time></trkpt>
<trkpt lat="46.79903269" lon="7.01047897"><ele></ele><time>2014-6-19T8:22:1Z</time></trkpt>
<trkpt lat="46.79903269" lon="7.01080084"><ele></ele><time>2014-6-19T8:22:4Z</time></trkpt>
<trkpt lat="46.79924726" lon="7.01090813"><ele></ele><time>2014-6-19T8:22:7Z</time></trkpt>
<trkpt lat="46.79929018" lon="7.01092958"><ele></ele><time>2014-6-19T8:22:10Z</time></trkpt>
<trkpt lat="46.79941893" lon="7.01086521"><ele></ele><time>2014-6-19T8:22:13Z</time></trkpt>
<trkpt lat="46.79944038" lon="7.01082230"><ele></ele><time>2014-6-19T8:22:16Z</time></trkpt>
<trkpt lat="46.79956913" lon="7.01054335"><ele></ele><time>2014-6-19T8:22:19Z</time></trkpt>
<trkpt lat="46.79978371" lon="7.01037169"><ele></ele><time>2014-6-19T8:22:22Z</time></trkpt>
<trkpt lat="46.79991245" lon="7.01024294"><ele></ele><time>2014-6-19T8:22:25Z</time></trkpt>
<trkpt lat="46.80001974" lon="7.01013565"><ele></ele><time>2014-6-19T8:22:28Z</time></trkpt>
<trkpt lat="46.80016994" lon="7.00974941"><ele></ele><time>2014-6-19T8:22:31Z</time></trkpt>
<trkpt lat="46.80025578" lon="7.00959921"><ele></ele><time>2014-6-19T8:22:34Z</time></trkpt>
<trkpt lat="46.80059910" lon="7.00906277"><ele></ele><time>2014-6-19T8:22:37Z</time></trkpt>
<trkpt lat="46.80087805" lon="7.00867653"><ele></ele><time>2014-6-19T8:22:40Z</time></trkpt>
<trkpt lat="46.80111408" lon="7.00837612"><ele></ele><time>2014-6-19T8:22:43Z</time></trkpt>
<trkpt lat="46.80126429" lon="7.00822592"><ele></ele><time>2014-6-19T8:22:46Z</time></trkpt>
<trkpt lat="46.80137157" lon="7.00814009"><ele></ele><time>2014-6-19T8:22:49Z</time></trkpt>
<trkpt lat="46.80177927" lon="7.00779676"><ele></ele><time>2014-6-19T8:22:52Z</time></trkpt>
<trkpt lat="46.80203676" lon="7.00760365"><ele></ele><time>2014-6-19T8:22:55Z</time></trkpt>
<trkpt lat="46.80250883" lon="7.00698137"><ele></ele><time>2014-6-19T8:22:58Z</time></trkpt>
<trkpt lat="46.80287361" lon="7.00629473"><ele></ele><time>2014-6-19T8:23:1Z</time></trkpt>
<trkpt lat="46.80317402" lon="7.00610161"><ele></ele><time>2014-6-19T8:23:4Z</time></trkpt>
<trkpt lat="46.80332422" lon="7.00603724"><ele></ele><time>2014-6-19T8:23:7Z</time></trkpt>
<trkpt lat="46.80383921" lon="7.00560808"><ele></ele><time>2014-6-19T8:23:10Z</time></trkpt>
<trkpt lat="46.80394650" lon="7.00550079"><ele></ele><time>2014-6-19T8:23:13Z</time></trkpt>
<trkpt lat="46.80409670" lon="7.00530767"><ele></ele><time>2014-6-19T8:23:16Z</time></trkpt>
<trkpt lat="46.80422544" lon="7.00511456"><ele></ele><time>2014-6-19T8:23:19Z</time></trkpt>
<trkpt lat="46.80444002" lon="7.00457811"><ele></ele><time>2014-6-19T8:23:22Z</time></trkpt>
<trkpt lat="46.80448294" lon="7.00419188"><ele></ele><time>2014-6-19T8:23:25Z</time></trkpt>
<trkpt lat="46.80446148" lon="7.00404167"><ele></ele><time>2014-6-19T8:23:28Z</time></trkpt>
<trkpt lat="46.80433273" lon="7.00361252"><ele></ele><time>2014-6-19T8:23:31Z</time></trkpt>
<trkpt lat="46.80424690" lon="7.00344086"><ele></ele><time>2014-6-19T8:23:34Z</time></trkpt>
<trkpt lat="46.80411816" lon="7.00288296"><ele></ele><time>2014-6-19T8:23:37Z</time></trkpt>
<trkpt lat="46.80411816" lon="7.00241089"><ele></ele><time>2014-6-19T8:23:40Z</time></trkpt>
<trkpt lat="46.80411816" lon="7.00213194"><ele></ele><time>2014-6-19T8:23:43Z</time></trkpt>
<trkpt lat="46.80413961" lon="7.00161695"><ele></ele><time>2014-6-19T8:23:46Z</time></trkpt>
<trkpt lat="46.80431128" lon="7.00058699"><ele></ele><time>2014-6-19T8:23:49Z</time></trkpt>
<trkpt lat="46.80433273" lon="7.00045824"><ele></ele><time>2014-6-19T8:23:52Z</time></trkpt>
<trkpt lat="46.80441856" lon="6.99970722"><ele></ele><time>2014-6-19T8:23:55Z</time></trkpt>
<trkpt lat="46.80444002" lon="6.99944973"><ele></ele><time>2014-6-19T8:23:58Z</time></trkpt>
<trkpt lat="46.80465460" lon="6.99893475"><ele></ele><time>2014-6-19T8:24:1Z</time></trkpt>
<trkpt lat="46.80495501" lon="6.99865580"><ele></ele><time>2014-6-19T8:24:4Z</time></trkpt>
<trkpt lat="46.80510521" lon="6.99852705"><ele></ele><time>2014-6-19T8:24:7Z</time></trkpt>
<trkpt lat="46.80538416" lon="6.99829102"><ele></ele><time>2014-6-19T8:24:10Z</time></trkpt>
<trkpt lat="46.80570602" lon="6.99760437"><ele></ele><time>2014-6-19T8:24:13Z</time></trkpt>
<trkpt lat="46.80574894" lon="6.99751854"><ele></ele><time>2014-6-19T8:24:16Z</time></trkpt>
<trkpt lat="46.80619955" lon="6.99691772"><ele></ele><time>2014-6-19T8:24:19Z</time></trkpt>
<trkpt lat="46.80632830" lon="6.99655294"><ele></ele><time>2014-6-19T8:24:22Z</time></trkpt>
<trkpt lat="46.80658579" lon="6.99629545"><ele></ele><time>2014-6-19T8:24:25Z</time></trkpt>
<trkpt lat="46.80733681" lon="6.99584484"><ele></ele><time>2014-6-19T8:24:28Z</time></trkpt>
<trkpt lat="46.80748701" lon="6.99580193"><ele></ele><time>2014-6-19T8:24:31Z</time></trkpt>
<trkpt lat="46.80772305" lon="6.99586630"><ele></ele><time>2014-6-19T8:24:34Z</time></trkpt>
<trkpt lat="46.80793762" lon="6.99588776"><ele></ele><time>2014-6-19T8:24:37Z</time></trkpt>
<trkpt lat="46.80825949" lon="6.99586630"><ele></ele><time>2014-6-19T8:24:40Z</time></trkpt>
<trkpt lat="46.80849552" lon="6.99584484"><ele></ele><time>2014-6-19T8:24:43Z</time></trkpt>
<trkpt lat="46.80886030" lon="6.99571609"><ele></ele><time>2014-6-19T8:24:46Z</time></trkpt>
<trkpt lat="46.80892467" lon="6.99569464"><ele></ele><time>2014-6-19T8:24:49Z</time></trkpt>
<trkpt lat="46.80935383" lon="6.99558735"><ele></ele><time>2014-6-19T8:24:52Z</time></trkpt>
<trkpt lat="46.80956841" lon="6.99545860"><ele></ele><time>2014-6-19T8:24:55Z</time></trkpt>
<trkpt lat="46.80993319" lon="6.99511528"><ele></ele><time>2014-6-19T8:24:58Z</time></trkpt>
<trkpt lat="46.81023359" lon="6.99494362"><ele></ele><time>2014-6-19T8:25:1Z</time></trkpt>
<trkpt lat="46.81057692" lon="6.99457884"><ele></ele><time>2014-6-19T8:25:4Z</time></trkpt>
<trkpt lat="46.81079149" lon="6.99453592"><ele></ele><time>2014-6-19T8:25:7Z</time></trkpt>
<trkpt lat="46.81107044" lon="6.99453592"><ele></ele><time>2014-6-19T8:25:10Z</time></trkpt>
<trkpt lat="46.81124210" lon="6.99481487"><ele></ele><time>2014-6-19T8:25:13Z</time></trkpt>
<trkpt lat="46.81124210" lon="6.99487925"><ele></ele><time>2014-6-19T8:25:16Z</time></trkpt>
<trkpt lat="46.81126356" lon="6.99513674"><ele></ele><time>2014-6-19T8:25:19Z</time></trkpt>
<trkpt lat="46.81126356" lon="6.99526548"><ele></ele><time>2014-6-19T8:25:22Z</time></trkpt>
<trkpt lat="46.81126356" lon="6.99554443"><ele></ele><time>2014-6-19T8:25:25Z</time></trkpt>
<trkpt lat="46.81124210" lon="6.99601650"><ele></ele><time>2014-6-19T8:25:28Z</time></trkpt>
<trkpt lat="46.81134939" lon="6.99625254"><ele></ele><time>2014-6-19T8:25:31Z</time></trkpt>
<trkpt lat="46.81139231" lon="6.99653149"><ele></ele><time>2014-6-19T8:25:34Z</time></trkpt>
<trkpt lat="46.81143522" lon="6.99672461"><ele></ele><time>2014-6-19T8:25:37Z</time></trkpt>
<trkpt lat="46.81149960" lon="6.99698210"><ele></ele><time>2014-6-19T8:25:40Z</time></trkpt>
<trkpt lat="46.81154251" lon="6.99719667"><ele></ele><time>2014-6-19T8:25:43Z</time></trkpt>
<trkpt lat="46.81160688" lon="6.99736834"><ele></ele><time>2014-6-19T8:25:46Z</time></trkpt>
<trkpt lat="46.81164980" lon="6.99751854"><ele></ele><time>2014-6-19T8:25:49Z</time></trkpt>
<trkpt lat="46.81177855" lon="6.99781895"><ele></ele><time>2014-6-19T8:25:52Z</time></trkpt>
<trkpt lat="46.81188583" lon="6.99811935"><ele></ele><time>2014-6-19T8:25:55Z</time></trkpt>
<trkpt lat="46.81197166" lon="6.99859142"><ele></ele><time>2014-6-19T8:25:58Z</time></trkpt>
<trkpt lat="46.81203604" lon="6.99882746"><ele></ele><time>2014-6-19T8:26:1Z</time></trkpt>
<trkpt lat="46.81205750" lon="6.99893475"><ele></ele><time>2014-6-19T8:26:4Z</time></trkpt>
<trkpt lat="46.81210041" lon="6.99919224"><ele></ele><time>2014-6-19T8:26:7Z</time></trkpt>
<trkpt lat="46.81212187" lon="6.99929953"><ele></ele><time>2014-6-19T8:26:10Z</time></trkpt>
<trkpt lat="46.81218624" lon="6.99959993"><ele></ele><time>2014-6-19T8:26:13Z</time></trkpt>
<trkpt lat="46.81218624" lon="6.99972868"><ele></ele><time>2014-6-19T8:26:16Z</time></trkpt>
<trkpt lat="46.81220770" lon="7.00000763"><ele></ele><time>2014-6-19T8:26:19Z</time></trkpt>
<trkpt lat="46.81233644" lon="7.00035095"><ele></ele><time>2014-6-19T8:26:22Z</time></trkpt>
<trkpt lat="46.81235790" lon="7.00050116"><ele></ele><time>2014-6-19T8:26:25Z</time></trkpt>
<trkpt lat="46.81233644" lon="7.00056553"><ele></ele><time>2014-6-19T8:26:28Z</time></trkpt>
<trkpt lat="46.81231499" lon="7.00067282"><ele></ele><time>2014-6-19T8:26:31Z</time></trkpt>
<trkpt lat="46.81237936" lon="7.00090885"><ele></ele><time>2014-6-19T8:26:34Z</time></trkpt>
<trkpt lat="46.81244373" lon="7.00112343"><ele></ele><time>2014-6-19T8:26:37Z</time></trkpt>
<trkpt lat="46.81244373" lon="7.00118780"><ele></ele><time>2014-6-19T8:26:40Z</time></trkpt>
<trkpt lat="46.81246519" lon="7.00146675"><ele></ele><time>2014-6-19T8:26:43Z</time></trkpt>
<trkpt lat="46.81259394" lon="7.00170279"><ele></ele><time>2014-6-19T8:26:46Z</time></trkpt>
<trkpt lat="46.81267977" lon="7.00183153"><ele></ele><time>2014-6-19T8:26:49Z</time></trkpt>
<trkpt lat="46.81267977" lon="7.00189590"><ele></ele><time>2014-6-19T8:26:52Z</time></trkpt>
<trkpt lat="46.81272268" lon="7.00200319"><ele></ele><time>2014-6-19T8:26:55Z</time></trkpt>
<trkpt lat="46.81272268" lon="7.00208902"><ele></ele><time>2014-6-19T8:26:58Z</time></trkpt>
<trkpt lat="46.81280851" lon="7.00223923"><ele></ele><time>2014-6-19T8:27:1Z</time></trkpt>
<trkpt lat="46.81282997" lon="7.00238943"><ele></ele><time>2014-6-19T8:27:4Z</time></trkpt>
<trkpt lat="46.81285143" lon="7.00243235"><ele></ele><time>2014-6-19T8:27:7Z</time></trkpt>
<trkpt lat="46.81287289" lon="7.00249672"><ele></ele><time>2014-6-19T8:27:10Z</time></trkpt>
<trkpt lat="46.81289434" lon="7.00260401"><ele></ele><time>2014-6-19T8:27:13Z</time></trkpt>
<trkpt lat="46.81291580" lon="7.00286150"><ele></ele><time>2014-6-19T8:27:16Z</time></trkpt>
<trkpt lat="46.81285143" lon="7.00301170"><ele></ele><time>2014-6-19T8:27:19Z</time></trkpt>
<trkpt lat="46.81287289" lon="7.00303316"><ele></ele><time>2014-6-19T8:27:22Z</time></trkpt>
<trkpt lat="46.81282997" lon="7.00324774"><ele></ele><time>2014-6-19T8:27:25Z</time></trkpt>
<trkpt lat="46.81276560" lon="7.00361252"><ele></ele><time>2014-6-19T8:27:28Z</time></trkpt>
<trkpt lat="46.81274414" lon="7.00391293"><ele></ele><time>2014-6-19T8:27:31Z</time></trkpt>
<trkpt lat="46.81276560" lon="7.00406313"><ele></ele><time>2014-6-19T8:27:34Z</time></trkpt>
<trkpt lat="46.81278706" lon="7.00419188"><ele></ele><time>2014-6-19T8:27:37Z</time></trkpt>
<trkpt lat="46.81289434" lon="7.00451374"><ele></ele><time>2014-6-19T8:27:40Z</time></trkpt>
<trkpt lat="46.81298018" lon="7.00472832"><ele></ele><time>2014-6-19T8:27:43Z</time></trkpt>
<trkpt lat="46.81300163" lon="7.00483561"><ele></ele><time>2014-6-19T8:27:46Z</time></trkpt>
<trkpt lat="46.81298018" lon="7.00487852"><ele></ele><time>2014-6-19T8:27:49Z</time></trkpt>
<trkpt lat="46.81300163" lon="7.00509310"><ele></ele><time>2014-6-19T8:27:52Z</time></trkpt>
<trkpt lat="46.81300163" lon="7.00541496"><ele></ele><time>2014-6-19T8:27:55Z</time></trkpt>
<trkpt lat="46.81302309" lon="7.00569391"><ele></ele><time>2014-6-19T8:27:58Z</time></trkpt>
<trkpt lat="46.81304455" lon="7.00573683"><ele></ele><time>2014-6-19T8:28:1Z</time></trkpt>
<trkpt lat="46.81306601" lon="7.00562954"><ele></ele><time>2014-6-19T8:28:4Z</time></trkpt>
<trkpt lat="46.81306601" lon="7.00554371"><ele></ele><time>2014-6-19T8:28:7Z</time></trkpt>
<trkpt lat="46.81308746" lon="7.00550079"><ele></ele><time>2014-6-19T8:28:10Z</time></trkpt>
<trkpt lat="46.81308746" lon="7.00541496"><ele></ele><time>2014-6-19T8:28:13Z</time></trkpt>
<trkpt lat="46.81310892" lon="7.00537205"><ele></ele><time>2014-6-19T8:28:16Z</time></trkpt>
<trkpt lat="46.81313038" lon="7.00526476"><ele></ele><time>2014-6-19T8:28:19Z</time></trkpt>
<trkpt lat="46.81313038" lon="7.00522184"><ele></ele><time>2014-6-19T8:28:22Z</time></trkpt>
<trkpt lat="46.81313038" lon="7.00520039"><ele></ele><time>2014-6-19T8:28:25Z</time></trkpt>
<trkpt lat="46.81319475" lon="7.00500727"><ele></ele><time>2014-6-19T8:28:28Z</time></trkpt>
<trkpt lat="46.81321621" lon="7.00485706"><ele></ele><time>2014-6-19T8:28:31Z</time></trkpt>
<trkpt lat="46.81321621" lon="7.00479269"><ele></ele><time>2014-6-19T8:28:34Z</time></trkpt>
<trkpt lat="46.81321621" lon="7.00474977"><ele></ele><time>2014-6-19T8:28:37Z</time></trkpt>
<trkpt lat="46.81323767" lon="7.00464249"><ele></ele><time>2014-6-19T8:28:40Z</time></trkpt>
<trkpt lat="46.81321621" lon="7.00459957"><ele></ele><time>2014-6-19T8:28:43Z</time></trkpt>
<trkpt lat="46.81317329" lon="7.00444937"><ele></ele><time>2014-6-19T8:28:46Z</time></trkpt>
<trkpt lat="46.81313038" lon="7.00427771"><ele></ele><time>2014-6-19T8:28:49Z</time></trkpt>
<trkpt lat="46.81308746" lon="7.00414896"><ele></ele><time>2014-6-19T8:28:52Z</time></trkpt>
<trkpt lat="46.81304455" lon="7.00393438"><ele></ele><time>2014-6-19T8:28:55Z</time></trkpt>
<trkpt lat="46.81300163" lon="7.00371981"><ele></ele><time>2014-6-19T8:28:58Z</time></trkpt>
<trkpt lat="46.81304455" lon="7.00352669"><ele></ele><time>2014-6-19T8:29:1Z</time></trkpt>
<trkpt lat="46.81304455" lon="7.00346231"><ele></ele><time>2014-6-19T8:29:4Z</time></trkpt>
<trkpt lat="46.81304455" lon="7.00335503"><ele></ele><time>2014-6-19T8:29:7Z</time></trkpt>
<trkpt lat="46.81304455" lon="7.00318336"><ele></ele><time>2014-6-19T8:29:10Z</time></trkpt>
<trkpt lat="46.81306601" lon="7.00309753"><ele></ele><time>2014-6-19T8:29:13Z</time></trkpt>
<trkpt lat="46.81306601" lon="7.00307608"><ele></ele><time>2014-6-19T8:29:16Z</time></trkpt>
<trkpt lat="46.81304455" lon="7.00292587"><ele></ele><time>2014-6-19T8:29:19Z</time></trkpt>
<trkpt lat="46.81304455" lon="7.00275421"><ele></ele><time>2014-6-19T8:29:22Z</time></trkpt>
<trkpt lat="46.81306601" lon="7.00247526"><ele></ele><time>2014-6-19T8:29:25Z</time></trkpt>
<trkpt lat="46.81308746" lon="7.00247526"><ele></ele><time>2014-6-19T8:29:28Z</time></trkpt>
<trkpt lat="46.81310892" lon="7.00253963"><ele></ele><time>2014-6-19T8:29:31Z</time></trkpt>
<trkpt lat="46.81315184" lon="7.00301170"><ele></ele><time>2014-6-19T8:29:34Z</time></trkpt>
<trkpt lat="46.81323767" lon="7.00333357"><ele></ele><time>2014-6-19T8:29:37Z</time></trkpt>
<trkpt lat="46.81328058" lon="7.00361252"><ele></ele><time>2014-6-19T8:29:40Z</time></trkpt>
<trkpt lat="46.81330204" lon="7.00371981"><ele></ele><time>2014-6-19T8:29:43Z</time></trkpt>
<trkpt lat="46.81334496" lon="7.00389147"><ele></ele><time>2014-6-19T8:29:46Z</time></trkpt>
<trkpt lat="46.81340933" lon="7.00414896"><ele></ele><time>2014-6-19T8:29:49Z</time></trkpt>
<trkpt lat="46.81345224" lon="7.00429916"><ele></ele><time>2014-6-19T8:29:52Z</time></trkpt>
<trkpt lat="46.81347370" lon="7.00436354"><ele></ele><time>2014-6-19T8:29:55Z</time></trkpt>
<trkpt lat="46.81353807" lon="7.00449228"><ele></ele><time>2014-6-19T8:29:58Z</time></trkpt>
<trkpt lat="46.81358099" lon="7.00455666"><ele></ele><time>2014-6-19T8:30:1Z</time></trkpt>
<trkpt lat="46.81360245" lon="7.00464249"><ele></ele><time>2014-6-19T8:30:4Z</time></trkpt>
<trkpt lat="46.81364536" lon="7.00474977"><ele></ele><time>2014-6-19T8:30:7Z</time></trkpt>
<trkpt lat="46.81368828" lon="7.00487852"><ele></ele><time>2014-6-19T8:30:10Z</time></trkpt>
<trkpt lat="46.81373119" lon="7.00492144"><ele></ele><time>2014-6-19T8:30:13Z</time></trkpt>
<trkpt lat="46.81375265" lon="7.00502872"><ele></ele><time>2014-6-19T8:30:16Z</time></trkpt>
<trkpt lat="46.81377411" lon="7.00513601"><ele></ele><time>2014-6-19T8:30:19Z</time></trkpt>
<trkpt lat="46.81377411" lon="7.00515747"><ele></ele><time>2014-6-19T8:30:22Z</time></trkpt>
<trkpt lat="46.81381702" lon="7.00526476"><ele></ele><time>2014-6-19T8:30:25Z</time></trkpt>
<trkpt lat="46.81383848" lon="7.00539351"><ele></ele><time>2014-6-19T8:30:28Z</time></trkpt>
<trkpt lat="46.81383848" lon="7.00541496"><ele></ele><time>2014-6-19T8:30:31Z</time></trkpt>
<trkpt lat="46.81388140" lon="7.00550079"><ele></ele><time>2014-6-19T8:30:34Z</time></trkpt>
<trkpt lat="46.81390285" lon="7.00560808"><ele></ele><time>2014-6-19T8:30:37Z</time></trkpt>
<trkpt lat="46.81394577" lon="7.00573683"><ele></ele><time>2014-6-19T8:30:40Z</time></trkpt>
<trkpt lat="46.81396723" lon="7.00586557"><ele></ele><time>2014-6-19T8:30:43Z</time></trkpt>
<trkpt lat="46.81398869" lon="7.00597286"><ele></ele><time>2014-6-19T8:30:46Z</time></trkpt>
<trkpt lat="46.81407452" lon="7.00618744"><ele></ele><time>2014-6-19T8:30:49Z</time></trkpt>
<trkpt lat="46.81411743" lon="7.00633764"><ele></ele><time>2014-6-19T8:30:52Z</time></trkpt>
<trkpt lat="46.81413889" lon="7.00648785"><ele></ele><time>2014-6-19T8:30:55Z</time></trkpt>
<trkpt lat="46.81411743" lon="7.00650930"><ele></ele><time>2014-6-19T8:30:58Z</time></trkpt>
<trkpt lat="46.81413889" lon="7.00659513"><ele></ele><time>2014-6-19T8:31:1Z</time></trkpt>
<trkpt lat="46.81416035" lon="7.00665951"><ele></ele><time>2014-6-19T8:31:4Z</time></trkpt>
<trkpt lat="46.81416035" lon="7.00670242"><ele></ele><time>2014-6-19T8:31:7Z</time></trkpt>
<trkpt lat="46.81416035" lon="7.00678825"><ele></ele><time>2014-6-19T8:31:10Z</time></trkpt>
<trkpt lat="46.81418180" lon="7.00685263"><ele></ele><time>2014-6-19T8:31:13Z</time></trkpt>
<trkpt lat="46.81418180" lon="7.00695992"><ele></ele><time>2014-6-19T8:31:16Z</time></trkpt>
<trkpt lat="46.81420326" lon="7.00700283"><ele></ele><time>2014-6-19T8:31:19Z</time></trkpt>
<trkpt lat="46.81420326" lon="7.00715303"><ele></ele><time>2014-6-19T8:31:22Z</time></trkpt>
<trkpt lat="46.81420326" lon="7.00719595"><ele></ele><time>2014-6-19T8:31:25Z</time></trkpt>
<trkpt lat="46.81422472" lon="7.00728178"><ele></ele><time>2014-6-19T8:31:28Z</time></trkpt>
<trkpt lat="46.81426764" lon="7.00741053"><ele></ele><time>2014-6-19T8:31:31Z</time></trkpt>
<trkpt lat="46.81426764" lon="7.00749636"><ele></ele><time>2014-6-19T8:31:34Z</time></trkpt>
<trkpt lat="46.81426764" lon="7.00753927"><ele></ele><time>2014-6-19T8:31:37Z</time></trkpt>
<trkpt lat="46.81426764" lon="7.00766802"><ele></ele><time>2014-6-19T8:31:40Z</time></trkpt>
<trkpt lat="46.81422472" lon="7.00773239"><ele></ele><time>2014-6-19T8:31:43Z</time></trkpt>
<trkpt lat="46.81424618" lon="7.00781822"><ele></ele><time>2014-6-19T8:31:46Z</time></trkpt>
<trkpt lat="46.81424618" lon="7.00788260"><ele></ele><time>2014-6-19T8:31:49Z</time></trkpt>
<trkpt lat="46.81424618" lon="7.00805426"><ele></ele><time>2014-6-19T8:31:52Z</time></trkpt>
<trkpt lat="46.81428909" lon="7.00824738"><ele></ele><time>2014-6-19T8:31:55Z</time></trkpt>
<trkpt lat="46.81431055" lon="7.00833321"><ele></ele><time>2014-6-19T8:31:58Z</time></trkpt>
<trkpt lat="46.81433201" lon="7.00841904"><ele></ele><time>2014-6-19T8:32:1Z</time></trkpt>
<trkpt lat="46.81433201" lon="7.00846195"><ele></ele><time>2014-6-19T8:32:4Z</time></trkpt>
<trkpt lat="46.81435347" lon="7.00850487"><ele></ele><time>2014-6-19T8:32:7Z</time></trkpt>
<trkpt lat="46.81437492" lon="7.00869799"><ele></ele><time>2014-6-19T8:32:10Z</time></trkpt>
<trkpt lat="46.81437492" lon="7.00884819"><ele></ele><time>2014-6-19T8:32:13Z</time></trkpt>
<trkpt lat="46.81437492" lon="7.00886965"><ele></ele><time>2014-6-19T8:32:16Z</time></trkpt>
<trkpt lat="46.81437492" lon="7.00912714"><ele></ele><time>2014-6-19T8:32:19Z</time></trkpt>
<trkpt lat="46.81433201" lon="7.00942755"><ele></ele><time>2014-6-19T8:32:22Z</time></trkpt>
<trkpt lat="46.81433201" lon="7.00951338"><ele></ele><time>2014-6-19T8:32:25Z</time></trkpt>
<trkpt lat="46.81431055" lon="7.00985670"><ele></ele><time>2014-6-19T8:32:28Z</time></trkpt>
<trkpt lat="46.81424618" lon="7.01024294"><ele></ele><time>2014-6-19T8:32:31Z</time></trkpt>
<trkpt lat="46.81422472" lon="7.01054335"><ele></ele><time>2014-6-19T8:32:34Z</time></trkpt>
<trkpt lat="46.81428909" lon="7.01073647"><ele></ele><time>2014-6-19T8:32:37Z</time></trkpt>
<trkpt lat="46.81435347" lon="7.01088667"><ele></ele><time>2014-6-19T8:32:40Z</time></trkpt>
<trkpt lat="46.81446075" lon="7.01101542"><ele></ele><time>2014-6-19T8:32:43Z</time></trkpt>
<trkpt lat="46.81461096" lon="7.01122999"><ele></ele><time>2014-6-19T8:32:46Z</time></trkpt>
<trkpt lat="46.81473970" lon="7.01142311"><ele></ele><time>2014-6-19T8:32:49Z</time></trkpt>
<trkpt lat="46.81493282" lon="7.01172352"><ele></ele><time>2014-6-19T8:32:52Z</time></trkpt>
<trkpt lat="46.81506157" lon="7.01206684"><ele></ele><time>2014-6-19T8:32:55Z</time></trkpt>
<trkpt lat="46.81514740" lon="7.01236725"><ele></ele><time>2014-6-19T8:32:58Z</time></trkpt>
<trkpt lat="46.81516886" lon="7.01271057"><ele></ele><time>2014-6-19T8:33:1Z</time></trkpt>
<trkpt lat="46.81512594" lon="7.01318264"><ele></ele><time>2014-6-19T8:33:4Z</time></trkpt>
<trkpt lat="46.81512594" lon="7.01326847"><ele></ele><time>2014-6-19T8:33:7Z</time></trkpt>
<trkpt lat="46.81510448" lon="7.01352596"><ele></ele><time>2014-6-19T8:33:10Z</time></trkpt>
<trkpt lat="46.81512594" lon="7.01363325"><ele></ele><time>2014-6-19T8:33:13Z</time></trkpt>
<trkpt lat="46.81512594" lon="7.01378345"><ele></ele><time>2014-6-19T8:33:16Z</time></trkpt>
<trkpt lat="46.81514740" lon="7.01421261"><ele></ele><time>2014-6-19T8:33:19Z</time></trkpt>
<trkpt lat="46.81512594" lon="7.01464176"><ele></ele><time>2014-6-19T8:33:22Z</time></trkpt>
<trkpt lat="46.81514740" lon="7.01504946"><ele></ele><time>2014-6-19T8:33:25Z</time></trkpt>
<trkpt lat="46.81516886" lon="7.01537132"><ele></ele><time>2014-6-19T8:33:28Z</time></trkpt>
<trkpt lat="46.81516886" lon="7.01547861"><ele></ele><time>2014-6-19T8:33:31Z</time></trkpt>
<trkpt lat="46.81516886" lon="7.01571465"><ele></ele><time>2014-6-19T8:33:34Z</time></trkpt>
<trkpt lat="46.81516886" lon="7.01577902"><ele></ele><time>2014-6-19T8:33:37Z</time></trkpt>
<trkpt lat="46.81516886" lon="7.01595068"><ele></ele><time>2014-6-19T8:33:40Z</time></trkpt>
<trkpt lat="46.81516886" lon="7.01599360"><ele></ele><time>2014-6-19T8:33:43Z</time></trkpt>
<trkpt lat="46.81514740" lon="7.01622963"><ele></ele><time>2014-6-19T8:33:46Z</time></trkpt>
<trkpt lat="46.81516886" lon="7.01635838"><ele></ele><time>2014-6-19T8:33:49Z</time></trkpt>
<trkpt lat="46.81516886" lon="7.01659441"><ele></ele><time>2014-6-19T8:33:52Z</time></trkpt>
<trkpt lat="46.81521177" lon="7.01691628"><ele></ele><time>2014-6-19T8:33:55Z</time></trkpt>
<trkpt lat="46.81523323" lon="7.01702356"><ele></ele><time>2014-6-19T8:33:58Z</time></trkpt>
<trkpt lat="46.81529760" lon="7.01721668"><ele></ele><time>2014-6-19T8:34:1Z</time></trkpt>
<trkpt lat="46.81529760" lon="7.01728106"><ele></ele><time>2014-6-19T8:34:4Z</time></trkpt>
<trkpt lat="46.81529760" lon="7.01738834"><ele></ele><time>2014-6-19T8:34:7Z</time></trkpt>
<trkpt lat="46.81529760" lon="7.01747417"><ele></ele><time>2014-6-19T8:34:10Z</time></trkpt>
<trkpt lat="46.81531906" lon="7.01766729"><ele></ele><time>2014-6-19T8:34:13Z</time></trkpt>
<trkpt lat="46.81534052" lon="7.01786041"><ele></ele><time>2014-6-19T8:34:16Z</time></trkpt>
<trkpt lat="46.81538343" lon="7.01803207"><ele></ele><time>2014-6-19T8:34:19Z</time></trkpt>
<trkpt lat="46.81538343" lon="7.01813936"><ele></ele><time>2014-6-19T8:34:22Z</time></trkpt>
<trkpt lat="46.81531906" lon="7.01841831"><ele></ele><time>2014-6-19T8:34:25Z</time></trkpt>
<trkpt lat="46.81538343" lon="7.01871872"><ele></ele><time>2014-6-19T8:34:28Z</time></trkpt>
<trkpt lat="46.81544781" lon="7.01912642"><ele></ele><time>2014-6-19T8:34:31Z</time></trkpt>
<trkpt lat="46.81549072" lon="7.01929808"><ele></ele><time>2014-6-19T8:34:34Z</time></trkpt>
<trkpt lat="46.81549072" lon="7.01934099"><ele></ele><time>2014-6-19T8:34:37Z</time></trkpt>
<trkpt lat="46.81546926" lon="7.01964140"><ele></ele><time>2014-6-19T8:34:40Z</time></trkpt>
<trkpt lat="46.81551218" lon="7.01998472"><ele></ele><time>2014-6-19T8:34:43Z</time></trkpt>
<trkpt lat="46.81555510" lon="7.02009201"><ele></ele><time>2014-6-19T8:34:46Z</time></trkpt>
<trkpt lat="46.81559801" lon="7.02030659"><ele></ele><time>2014-6-19T8:34:49Z</time></trkpt>
<trkpt lat="46.81564093" lon="7.02058554"><ele></ele><time>2014-6-19T8:34:52Z</time></trkpt>
<trkpt lat="46.81568384" lon="7.02080011"><ele></ele><time>2014-6-19T8:34:55Z</time></trkpt>
<trkpt lat="46.81579113" lon="7.02118635"><ele></ele><time>2014-6-19T8:34:58Z</time></trkpt>
<trkpt lat="46.81594133" lon="7.02163696"><ele></ele><time>2014-6-19T8:35:1Z</time></trkpt>
<trkpt lat="46.81611300" lon="7.02202320"><ele></ele><time>2014-6-19T8:35:4Z</time></trkpt>
<trkpt lat="46.81615591" lon="7.02215195"><ele></ele><time>2014-6-19T8:35:7Z</time></trkpt>
<trkpt lat="46.81624174" lon="7.02247381"><ele></ele><time>2014-6-19T8:35:10Z</time></trkpt>
<trkpt lat="46.81626320" lon="7.02253819"><ele></ele><time>2014-6-19T8:35:13Z</time></trkpt>
<trkpt lat="46.81639194" lon="7.02288151"><ele></ele><time>2014-6-19T8:35:16Z</time></trkpt>
<trkpt lat="46.81658506" lon="7.02326775"><ele></ele><time>2014-6-19T8:35:19Z</time></trkpt>
<trkpt lat="46.81664944" lon="7.02343941"><ele></ele><time>2014-6-19T8:35:22Z</time></trkpt>
<trkpt lat="46.81673527" lon="7.02367544"><ele></ele><time>2014-6-19T8:35:25Z</time></trkpt>
<trkpt lat="46.81692839" lon="7.02421188"><ele></ele><time>2014-6-19T8:35:28Z</time></trkpt>
<trkpt lat="46.81697130" lon="7.02436209"><ele></ele><time>2014-6-19T8:35:31Z</time></trkpt>
<trkpt lat="46.81697130" lon="7.02461958"><ele></ele><time>2014-6-19T8:35:34Z</time></trkpt>
<trkpt lat="46.81699276" lon="7.02470541"><ele></ele><time>2014-6-19T8:35:37Z</time></trkpt>
<trkpt lat="46.81701422" lon="7.02524185"><ele></ele><time>2014-6-19T8:35:40Z</time></trkpt>
<trkpt lat="46.81705713" lon="7.02592850"><ele></ele><time>2014-6-19T8:35:43Z</time></trkpt>
<trkpt lat="46.81718588" lon="7.02661514"><ele></ele><time>2014-6-19T8:35:46Z</time></trkpt>
<trkpt lat="46.81733608" lon="7.02723742"><ele></ele><time>2014-6-19T8:35:49Z</time></trkpt>
<trkpt lat="46.81744337" lon="7.02779531"><ele></ele><time>2014-6-19T8:35:52Z</time></trkpt>
<trkpt lat="46.81748629" lon="7.02828884"><ele></ele><time>2014-6-19T8:35:55Z</time></trkpt>
<trkpt lat="46.81742191" lon="7.02871799"><ele></ele><time>2014-6-19T8:35:58Z</time></trkpt>
<trkpt lat="46.81735754" lon="7.02916861"><ele></ele><time>2014-6-19T8:36:1Z</time></trkpt>
<trkpt lat="46.81729317" lon="7.02953339"><ele></ele><time>2014-6-19T8:36:4Z</time></trkpt>
<trkpt lat="46.81725025" lon="7.02998400"><ele></ele><time>2014-6-19T8:36:7Z</time></trkpt>
<trkpt lat="46.81725025" lon="7.03047752"><ele></ele><time>2014-6-19T8:36:10Z</time></trkpt>
<trkpt lat="46.81725025" lon="7.03077793"><ele></ele><time>2014-6-19T8:36:13Z</time></trkpt>
<trkpt lat="46.81718588" lon="7.03172207"><ele></ele><time>2014-6-19T8:36:16Z</time></trkpt>
<trkpt lat="46.81718588" lon="7.03191519"><ele></ele><time>2014-6-19T8:36:19Z</time></trkpt>
<trkpt lat="46.81707859" lon="7.03234434"><ele></ele><time>2014-6-19T8:36:22Z</time></trkpt>
<trkpt lat="46.81703568" lon="7.03251600"><ele></ele><time>2014-6-19T8:36:25Z</time></trkpt>
<trkpt lat="46.81669235" lon="7.03318119"><ele></ele><time>2014-6-19T8:36:28Z</time></trkpt>
<trkpt lat="46.81607008" lon="7.03397512"><ele></ele><time>2014-6-19T8:36:31Z</time></trkpt>
<trkpt lat="46.81572676" lon="7.03472614"><ele></ele><time>2014-6-19T8:36:34Z</time></trkpt>
<trkpt lat="46.81546926" lon="7.03575611"><ele></ele><time>2014-6-19T8:36:37Z</time></trkpt>
<trkpt lat="46.81538343" lon="7.03665733"><ele></ele><time>2014-6-19T8:36:40Z</time></trkpt>
<trkpt lat="46.81527615" lon="7.03764439"><ele></ele><time>2014-6-19T8:36:43Z</time></trkpt>
<trkpt lat="46.81514740" lon="7.03876019"><ele></ele><time>2014-6-19T8:36:46Z</time></trkpt>
<trkpt lat="46.81516886" lon="7.03936100"><ele></ele><time>2014-6-19T8:36:49Z</time></trkpt>
<trkpt lat="46.81534052" lon="7.03994036"><ele></ele><time>2014-6-19T8:36:52Z</time></trkpt>
<trkpt lat="46.81536198" lon="7.04006910"><ele></ele><time>2014-6-19T8:36:55Z</time></trkpt>
<trkpt lat="46.81536198" lon="7.04032660"><ele></ele><time>2014-6-19T8:36:58Z</time></trkpt>
<trkpt lat="46.81529760" lon="7.04075575"><ele></ele><time>2014-6-19T8:37:1Z</time></trkpt>
<trkpt lat="46.81521177" lon="7.04122782"><ele></ele><time>2014-6-19T8:37:4Z</time></trkpt>
<trkpt lat="46.81516886" lon="7.04127073"><ele></ele><time>2014-6-19T8:37:7Z</time></trkpt>
<trkpt lat="46.81516886" lon="7.04127073"><ele></ele><time>2014-6-19T8:37:10Z</time></trkpt>
</trkseg></trk></gpx>